Time,TemperatureF,DewpointF,PressureIn,WindDirection,WindDirectionDegrees,WindSpeedMPH,WindSpeedGustMPH,Humidity,HourlyPrecipIn,Conditions,Clouds,dailyrainin,SolarRadiationWatts/m^2,SoftwareType,DateUTC
2013-01-07 00:00:00,17.1,13.1,29.44,NW,319,0.0,0.0,84,0.00,,CLR,0.00,0.00,VWS V14.01,2013-01-07 06:00:00,
2013-01-07 00:01:00,17.1,13.1,29.44,NW,319,0.0,0.0,84,0.00,,CLR,0.00,0.00,VWS V14.01,2013-01-07 06:01:00,
2013-01-07 00:04:00,17.0,13.0,29.44,NW,319,0.0,0.0,84,0.00,,CLR,0.00,0.00,VWS V14.01,2013-01-07 06:04:00,
2013-01-07 00:06:00,17.0,13.0,29.44,NW,319,0.0,0.0,84,0.00,,CLR,0.00,0.00,VWS V14.01,2013-01-07 06:06:00,
2013-01-07 00:09:00,16.9,12.9,29.44,NW,319,0.0,0.0,84,0.00,,CLR,0.00,0.00,VWS V14.01,2013-01-07 06:09:00,
2013-01-07 00:11:00,16.9,13.2,29.44,NW,319,0.0,0.0,85,0.00,,CLR,0.00,0.00,VWS V14.01,2013-01-07 06:11:00,
2013-01-07 00:12:00,16.9,13.2,29.44,NW,319,0.0,0.0,85,0.00,,CLR,0.00,0.00,VWS V14.01,2013-01-07 06:12:00,
2013-01-07 00:13:00,16.9,13.2,29.44,NW,319,0.0,0.0,85,0.00,,CLR,0.00,0.00,VWS V14.01,2013-01-07 06:13:00,
2013-01-07 00:18:00,16.9,13.2,29.43,NW,319,0.0,0.0,85,0.00,,CLR,0.00,0.00,VWS V14.01,2013-01-07 06:18:00,
2013-01-07 00:20:00,16.9,13.2,29.43,NW,319,0.0,0.0,85,0.00,,CLR,0.00,0.00,VWS V14.01,2013-01-07 06:20:00,
2013-01-07 00:21:00,16.9,13.2,29.43,NW,319,0.0,0.0,85,0.00,,CLR,0.00,0.00,VWS V14.01,2013-01-07 06:21:00,
2013-01-07 00:24:00,16.9,13.2,29.44,NW,319,0.0,0.0,85,0.00,,CLR,0.00,0.00,VWS V14.01,2013-01-07 06:24:00,
2013-01-07 00:25:00,16.9,13.2,29.44,NW,319,0.0,0.0,85,0.00,,CLR,0.00,0.00,VWS V14.01,2013-01-07 06:25:00,
2013-01-07 00:26:00,16.9,13.2,29.44,NW,319,0.0,0.0,85,0.00,,CLR,0.00,0.00,VWS V14.01,2013-01-07 06:26:00,
2013-01-07 00:31:00,16.9,13.2,29.44,NW,319,0.0,0.0,85,0.00,,CLR,0.00,0.00,VWS V14.01,2013-01-07 06:31:00,
2013-01-07 00:33:00,16.9,13.2,29.44,NW,319,0.0,0.0,85,0.00,,CLR,0.00,0.00,VWS V14.01,2013-01-07 06:33:00,
2013-01-07 00:34:00,16.8,13.1,29.44,NW,319,0.0,0.0,85,0.00,,CLR,0.00,0.00,VWS V14.01,2013-01-07 06:34:00,
2013-01-07 00:37:00,16.8,13.1,29.44,NW,319,0.0,0.0,85,0.00,,CLR,0.00,0.00,VWS V14.01,2013-01-07 06:37:00,
2013-01-07 00:38:00,16.8,13.1,29.43,NW,319,0.0,0.0,85,0.00,,CLR,0.00,0.00,VWS V14.01,2013-01-07 06:38:00,
2013-01-07 00:39:00,16.8,13.1,29.43,NW,319,0.0,0.0,85,0.00,,CLR,0.00,0.00,VWS V14.01,2013-01-07 06:39:00,
2013-01-07 00:41:00,16.8,13.1,29.43,NW,319,0.0,0.0,85,0.00,,CLR,0.00,0.00,VWS V14.01,2013-01-07 06:41:00,
2013-01-07 00:43:00,16.8,13.1,29.43,NW,319,0.0,0.0,85,0.00,,CLR,0.00,0.00,VWS V14.01,2013-01-07 06:43:00,
2013-01-07 00:44:00,16.8,13.1,29.44,NW,319,0.0,0.0,85,0.00,,CLR,0.00,0.00,VWS V14.01,2013-01-07 06:44:00,
2013-01-07 00:45:00,16.7,13.0,29.43,NW,319,0.0,0.0,85,0.00,,CLR,0.00,0.00,VWS V14.01,2013-01-07 06:45:00,
2013-01-07 00:48:00,16.7,13.0,29.43,NW,319,0.0,0.0,85,0.00,,CLR,0.00,0.00,VWS V14.01,2013-01-07 06:48:00,
2013-01-07 00:49:00,16.7,13.0,29.44,NW,319,0.0,0.0,85,0.00,,CLR,0.00,0.00,VWS V14.01,2013-01-07 06:49:00,
2013-01-07 00:50:00,16.7,13.0,29.43,NW,319,0.0,0.0,85,0.00,,CLR,0.00,0.00,VWS V14.01,2013-01-07 06:50:00,
2013-01-07 00:53:00,16.6,12.9,29.43,NW,319,0.0,0.0,85,0.00,,CLR,0.00,0.00,VWS V14.01,2013-01-07 06:53:00,
2013-01-07 00:54:00,16.6,12.9,29.43,NW,319,0.0,0.0,85,0.00,,CLR,0.00,0.00,VWS V14.01,2013-01-07 06:54:00,
2013-01-07 00:56:00,16.6,12.9,29.43,NW,319,0.0,0.0,85,0.00,,CLR,0.00,0.00,VWS V14.01,2013-01-07 06:56:00,
2013-01-07 00:59:00,16.6,12.9,29.43,NW,319,0.0,0.0,85,0.00,,CLR,0.00,0.00,VWS V14.01,2013-01-07 06:59:00,
2013-01-07 01:00:00,16.6,12.9,29.43,NW,319,0.0,0.0,85,0.00,,CLR,0.00,0.00,VWS V14.01,2013-01-07 07:00:00,
2013-01-07 01:02:00,16.5,12.8,29.43,NW,319,0.0,0.0,85,0.00,,CLR,0.00,0.00,VWS V14.01,2013-01-07 07:02:00,
2013-01-07 01:03:00,16.5,12.8,29.43,NW,319,0.0,0.0,85,0.00,,CLR,0.00,0.00,VWS V14.01,2013-01-07 07:03:00,
2013-01-07 01:07:00,16.5,12.8,29.43,NW,319,0.0,0.0,85,0.00,,CLR,0.00,0.00,VWS V14.01,2013-01-07 07:07:00,
2013-01-07 01:08:00,16.5,12.8,29.43,NW,319,0.0,0.0,85,0.00,,CLR,0.00,0.00,VWS V14.01,2013-01-07 07:08:00,
2013-01-07 01:10:00,16.5,12.8,29.43,NW,319,0.0,0.0,85,0.00,,CLR,0.00,0.00,VWS V14.01,2013-01-07 07:10:00,
2013-01-07 01:13:00,16.6,12.9,29.44,NW,319,0.0,0.0,85,0.00,,CLR,0.00,0.00,VWS V14.01,2013-01-07 07:13:00,
2013-01-07 01:15:00,16.6,12.9,29.44,NW,319,0.0,0.0,85,0.00,,CLR,0.00,0.00,VWS V14.01,2013-01-07 07:15:00,
2013-01-07 01:19:00,16.6,12.9,29.44,NW,319,0.0,0.0,85,0.00,,CLR,0.00,0.00,VWS V14.01,2013-01-07 07:19:00,
2013-01-07 01:21:00,16.6,12.9,29.44,NW,319,0.0,0.0,85,0.00,,CLR,0.00,0.00,VWS V14.01,2013-01-07 07:21:00,
2013-01-07 01:24:00,16.6,12.9,29.44,NW,319,0.0,0.0,85,0.00,,CLR,0.00,0.00,VWS V14.01,2013-01-07 07:24:00,
2013-01-07 01:26:00,16.6,12.9,29.44,NW,319,0.0,0.0,85,0.00,,CLR,0.00,0.00,VWS V14.01,2013-01-07 07:26:00,
2013-01-07 01:27:00,16.6,13.1,29.44,NW,319,0.0,0.0,86,0.00,,CLR,0.00,0.00,VWS V14.01,2013-01-07 07:27:00,
2013-01-07 01:30:00,16.6,13.1,29.44,NW,319,0.0,0.0,86,0.00,,CLR,0.00,0.00,VWS V14.01,2013-01-07 07:30:00,
2013-01-07 01:31:00,16.6,13.1,29.44,NW,319,0.0,0.0,86,0.00,,CLR,0.00,0.00,VWS V14.01,2013-01-07 07:31:00,
2013-01-07 01:33:00,16.6,13.1,29.44,NW,319,0.0,0.0,86,0.00,,CLR,0.00,0.00,VWS V14.01,2013-01-07 07:33:00,
2013-01-07 01:36:00,16.6,13.1,29.44,NW,319,0.0,0.0,86,0.00,,CLR,0.00,0.00,VWS V14.01,2013-01-07 07:36:00,
2013-01-07 01:38:00,16.6,13.1,29.44,NW,319,0.0,0.0,86,0.00,,CLR,0.00,0.00,VWS V14.01,2013-01-07 07:38:00,
2013-01-07 01:39:00,16.6,13.1,29.44,NW,319,0.0,0.0,86,0.00,,CLR,0.00,0.00,VWS V14.01,2013-01-07 07:39:00,
2013-01-07 01:41:00,16.6,13.1,29.44,NW,319,0.0,0.0,86,0.00,,CLR,0.00,0.00,VWS V14.01,2013-01-07 07:41:00,
2013-01-07 01:43:00,16.6,13.1,29.43,NW,319,0.0,0.0,86,0.00,,CLR,0.00,0.00,VWS V14.01,2013-01-07 07:43:00,
2013-01-07 01:45:00,16.7,13.2,29.43,NW,319,0.0,0.0,86,0.00,,CLR,0.00,0.00,VWS V14.01,2013-01-07 07:45:00,
2013-01-07 01:46:00,16.7,13.2,29.44,NW,319,0.0,0.0,86,0.00,,CLR,0.00,0.00,VWS V14.01,2013-01-07 07:46:00,
2013-01-07 01:48:00,16.8,13.4,29.43,NW,319,1.0,1.0,86,0.00,,CLR,0.00,0.00,VWS V14.01,2013-01-07 07:48:00,
2013-01-07 01:49:00,16.8,13.4,29.44,NW,319,0.0,1.0,86,0.00,,CLR,0.00,0.00,VWS V14.01,2013-01-07 07:49:00,
2013-01-07 01:54:00,17.1,13.6,29.44,SE,131,0.0,0.0,86,0.00,,CLR,0.00,0.00,VWS V14.01,2013-01-07 07:54:00,
2013-01-07 01:55:00,17.1,13.6,29.44,SE,131,0.0,0.0,86,0.00,,CLR,0.00,0.00,VWS V14.01,2013-01-07 07:55:00,
2013-01-07 01:56:00,17.2,13.7,29.44,SE,131,0.0,0.0,86,0.00,,CLR,0.00,0.00,VWS V14.01,2013-01-07 07:56:00,
2013-01-07 01:59:00,17.3,13.8,29.44,SSE,167,0.0,0.0,86,0.00,,CLR,0.00,0.00,VWS V14.01,2013-01-07 07:59:00,
2013-01-07 02:02:00,17.4,13.9,29.44,SSE,167,0.0,0.0,86,0.00,,CLR,0.00,0.00,VWS V14.01,2013-01-07 08:02:00,
2013-01-07 02:05:00,17.5,14.0,29.44,SSE,167,0.0,0.0,86,0.00,,CLR,0.00,0.00,VWS V14.01,2013-01-07 08:05:00,
2013-01-07 02:06:00,17.5,14.0,29.44,SSE,167,0.0,2.0,86,0.00,,CLR,0.00,0.00,VWS V14.01,2013-01-07 08:06:00,
2013-01-07 02:11:00,17.7,14.2,29.44,SSE,167,0.0,1.0,86,0.00,,CLR,0.00,0.00,VWS V14.01,2013-01-07 08:11:00,
2013-01-07 02:12:00,17.7,14.2,29.44,SSE,167,0.0,0.0,86,0.00,,CLR,0.00,0.00,VWS V14.01,2013-01-07 08:12:00,
2013-01-07 02:14:00,17.8,14.3,29.44,SSE,167,0.0,1.0,86,0.00,,CLR,0.00,0.00,VWS V14.01,2013-01-07 08:14:00,
2013-01-07 02:18:00,17.9,14.4,29.44,SSE,167,0.0,0.0,86,0.00,,CLR,0.00,0.00,VWS V14.01,2013-01-07 08:18:00,
2013-01-07 02:19:00,17.8,14.3,29.44,SSE,167,0.0,0.0,86,0.00,,CLR,0.00,0.00,VWS V14.01,2013-01-07 08:19:00,
2013-01-07 02:21:00,17.9,14.4,29.44,SSE,167,0.0,0.0,86,0.00,,CLR,0.00,0.00,VWS V14.01,2013-01-07 08:21:00,
2013-01-07 02:23:00,17.9,14.4,29.45,SSE,167,0.0,0.0,86,0.00,,CLR,0.00,0.00,VWS V14.01,2013-01-07 08:23:00,
2013-01-07 02:24:00,17.9,14.4,29.45,SSE,167,0.0,0.0,86,0.00,,CLR,0.00,0.00,VWS V14.01,2013-01-07 08:24:00,
2013-01-07 02:27:00,17.9,14.4,29.45,SSE,167,0.0,0.0,86,0.00,,CLR,0.00,0.00,VWS V14.01,2013-01-07 08:27:00,
2013-01-07 02:29:00,17.9,14.4,29.45,SSE,167,0.0,0.0,86,0.00,,CLR,0.00,0.00,VWS V14.01,2013-01-07 08:29:00,
2013-01-07 02:30:00,17.9,14.4,29.45,SSE,167,0.0,0.0,86,0.00,,CLR,0.00,0.00,VWS V14.01,2013-01-07 08:30:00,
2013-01-07 02:32:00,17.9,14.4,29.45,SSE,167,0.0,0.0,86,0.00,,CLR,0.00,0.00,VWS V14.01,2013-01-07 08:32:00,
2013-01-07 02:34:00,17.9,14.4,29.45,SSE,167,0.0,0.0,86,0.00,,CLR,0.00,0.00,VWS V14.01,2013-01-07 08:34:00,
2013-01-07 02:35:00,17.8,14.3,29.45,SSE,167,0.0,0.0,86,0.00,,CLR,0.00,0.00,VWS V14.01,2013-01-07 08:35:00,
2013-01-07 02:38:00,17.8,14.3,29.45,SSE,167,0.0,0.0,86,0.00,,CLR,0.00,0.00,VWS V14.01,2013-01-07 08:38:00,
2013-01-07 02:40:00,17.8,14.3,29.45,SSE,167,0.0,0.0,86,0.00,,CLR,0.00,0.00,VWS V14.01,2013-01-07 08:40:00,
2013-01-07 02:41:00,17.8,14.3,29.45,SSE,167,0.0,0.0,86,0.00,,CLR,0.00,0.00,VWS V14.01,2013-01-07 08:41:00,
2013-01-07 02:43:00,17.8,14.3,29.45,SSE,167,0.0,0.0,86,0.00,,CLR,0.00,0.00,VWS V14.01,2013-01-07 08:43:00,
2013-01-07 02:47:00,17.8,14.3,29.45,SSE,167,0.0,0.0,86,0.00,,CLR,0.00,0.00,VWS V14.01,2013-01-07 08:47:00,
2013-01-07 02:48:00,17.8,14.3,29.45,SSE,167,0.0,0.0,86,0.00,,CLR,0.00,0.00,VWS V14.01,2013-01-07 08:48:00,
2013-01-07 02:49:00,17.7,14.2,29.45,SSE,167,0.0,0.0,86,0.00,,CLR,0.00,0.00,VWS V14.01,2013-01-07 08:49:00,
2013-01-07 02:52:00,17.7,14.2,29.45,SSE,167,0.0,0.0,86,0.00,,CLR,0.00,0.00,VWS V14.01,2013-01-07 08:52:00,
2013-01-07 02:54:00,17.7,14.2,29.45,SSE,167,0.0,0.0,86,0.00,,CLR,0.00,0.00,VWS V14.01,2013-01-07 08:54:00,
2013-01-07 02:55:00,17.7,14.2,29.45,SSE,167,0.0,0.0,86,0.00,,CLR,0.00,0.00,VWS V14.01,2013-01-07 08:55:00,
2013-01-07 02:57:00,17.7,14.2,29.45,SSE,167,0.0,0.0,86,0.00,,CLR,0.00,0.00,VWS V14.01,2013-01-07 08:57:00,
2013-01-07 02:58:00,17.7,14.2,29.45,SSE,167,0.0,0.0,86,0.00,,CLR,0.00,0.00,VWS V14.01,2013-01-07 08:58:00,
2013-01-07 03:00:00,17.7,14.2,29.45,SSE,167,0.0,0.0,86,0.00,,CLR,0.00,0.00,VWS V14.01,2013-01-07 09:00:00,
2013-01-07 03:03:00,17.7,14.2,29.45,SSE,167,0.0,0.0,86,0.00,,CLR,0.00,0.00,VWS V14.01,2013-01-07 09:03:00,
2013-01-07 03:04:00,17.7,14.2,29.45,SSE,167,0.0,0.0,86,0.00,,CLR,0.00,0.00,VWS V14.01,2013-01-07 09:04:00,
2013-01-07 03:08:00,17.7,14.2,29.45,SSE,167,0.0,1.0,86,0.00,,CLR,0.00,0.00,VWS V14.01,2013-01-07 09:08:00,
2013-01-07 03:09:00,17.7,14.2,29.45,SSE,167,0.0,0.0,86,0.00,,CLR,0.00,0.00,VWS V14.01,2013-01-07 09:09:00,
2013-01-07 03:14:00,17.8,14.3,29.45,SSE,167,0.0,0.0,86,0.00,,CLR,0.00,0.00,VWS V14.01,2013-01-07 09:14:00,
2013-01-07 03:15:00,17.8,14.3,29.45,SSE,167,0.0,0.0,86,0.00,,CLR,0.00,0.00,VWS V14.01,2013-01-07 09:15:00,
2013-01-07 03:19:00,17.9,14.4,29.45,SSE,167,0.0,0.0,86,0.00,,CLR,0.00,0.00,VWS V14.01,2013-01-07 09:19:00,
2013-01-07 03:20:00,17.9,14.4,29.45,SSE,167,0.0,0.0,86,0.00,,CLR,0.00,0.00,VWS V14.01,2013-01-07 09:20:00,
2013-01-07 03:23:00,17.9,14.4,29.44,SSE,167,0.0,1.0,86,0.00,,CLR,0.00,0.00,VWS V14.01,2013-01-07 09:23:00,
2013-01-07 03:27:00,18.0,14.5,29.44,SSE,167,0.0,0.0,86,0.00,,CLR,0.00,0.00,VWS V14.01,2013-01-07 09:27:00,
2013-01-07 03:30:00,18.1,14.6,29.45,SSE,167,0.0,0.0,86,0.00,,CLR,0.00,0.00,VWS V14.01,2013-01-07 09:30:00,
2013-01-07 03:31:00,18.1,14.6,29.45,SSE,167,1.0,1.0,86,0.00,,CLR,0.00,0.00,VWS V14.01,2013-01-07 09:31:00,
2013-01-07 03:32:00,18.1,14.6,29.45,SSE,167,0.0,1.0,86,0.00,,CLR,0.00,0.00,VWS V14.01,2013-01-07 09:32:00,
2013-01-07 03:35:00,18.1,14.6,29.44,SSE,167,0.0,0.0,86,0.00,,CLR,0.00,0.00,VWS V14.01,2013-01-07 09:35:00,
2013-01-07 03:36:00,18.1,14.6,29.44,SSE,167,0.0,0.0,86,0.00,,CLR,0.00,0.00,VWS V14.01,2013-01-07 09:36:00,
2013-01-07 03:37:00,18.1,14.6,29.44,SSE,167,0.0,1.0,86,0.00,,CLR,0.00,0.00,VWS V14.01,2013-01-07 09:37:00,
2013-01-07 03:39:00,18.1,14.6,29.44,SSE,167,0.0,0.0,86,0.00,,CLR,0.00,0.00,VWS V14.01,2013-01-07 09:39:00,
2013-01-07 03:42:00,18.1,14.6,29.44,SSE,167,0.0,0.0,86,0.00,,CLR,0.00,0.00,VWS V14.01,2013-01-07 09:42:00,
2013-01-07 03:43:00,18.1,14.6,29.44,SSE,167,0.0,0.0,86,0.00,,CLR,0.00,0.00,VWS V14.01,2013-01-07 09:43:00,
2013-01-07 03:47:00,18.0,14.5,29.44,SSE,167,0.0,0.0,86,0.00,,CLR,0.00,0.00,VWS V14.01,2013-01-07 09:47:00,
2013-01-07 03:51:00,18.1,14.6,29.45,SSE,167,0.0,0.0,86,0.00,,CLR,0.00,0.00,VWS V14.01,2013-01-07 09:51:00,
2013-01-07 03:52:00,18.1,14.6,29.44,SSE,167,0.0,0.0,86,0.00,,CLR,0.00,0.00,VWS V14.01,2013-01-07 09:52:00,
2013-01-07 03:53:00,18.0,14.5,29.44,SSE,167,0.0,0.0,86,0.00,,CLR,0.00,0.00,VWS V14.01,2013-01-07 09:53:00,
2013-01-07 03:55:00,18.1,14.6,29.45,SSE,167,0.0,0.0,86,0.00,,CLR,0.00,0.00,VWS V14.01,2013-01-07 09:55:00,
2013-01-07 03:58:00,18.1,14.6,29.44,SSE,160,1.0,2.0,86,0.00,,CLR,0.00,0.00,VWS V14.01,2013-01-07 09:58:00,
2013-01-07 04:00:00,18.2,14.7,29.44,SSE,160,0.0,1.0,86,0.00,,CLR,0.00,0.00,VWS V14.01,2013-01-07 10:00:00,
2013-01-07 04:01:00,18.2,14.7,29.45,SSE,160,0.0,0.0,86,0.00,,CLR,0.00,0.00,VWS V14.01,2013-01-07 10:01:00,
2013-01-07 04:03:00,18.3,14.8,29.44,SSE,160,0.0,0.0,86,0.00,,CLR,0.00,0.00,VWS V14.01,2013-01-07 10:03:00,
2013-01-07 04:05:00,18.4,14.9,29.44,SSE,160,0.0,1.0,86,0.00,,CLR,0.00,0.00,VWS V14.01,2013-01-07 10:05:00,
2013-01-07 04:06:00,18.4,14.9,29.44,SSE,160,0.0,0.0,86,0.00,,CLR,0.00,0.00,VWS V14.01,2013-01-07 10:06:00,
2013-01-07 04:09:00,18.5,15.0,29.44,SSE,160,0.0,0.0,86,0.00,,CLR,0.00,0.00,VWS V14.01,2013-01-07 10:09:00,
2013-01-07 04:10:00,18.5,15.0,29.44,SSE,160,0.0,0.0,86,0.00,,CLR,0.00,0.00,VWS V14.01,2013-01-07 10:10:00,
2013-01-07 04:12:00,18.5,15.0,29.44,SSE,159,1.0,2.0,86,0.00,,CLR,0.00,0.00,VWS V14.01,2013-01-07 10:12:00,
2013-01-07 04:14:00,18.6,15.1,29.44,SSE,159,0.0,1.0,86,0.00,,CLR,0.00,0.00,VWS V14.01,2013-01-07 10:14:00,
2013-01-07 04:17:00,18.6,15.1,29.44,South,170,0.0,0.0,86,0.00,,CLR,0.00,0.00,VWS V14.01,2013-01-07 10:17:00,
2013-01-07 04:22:00,18.6,15.1,29.44,South,170,0.0,0.0,86,0.00,,CLR,0.00,0.00,VWS V14.01,2013-01-07 10:22:00,
2013-01-07 04:23:00,18.6,15.1,29.45,South,169,0.0,0.0,86,0.00,,CLR,0.00,0.00,VWS V14.01,2013-01-07 10:23:00,
2013-01-07 04:25:00,18.6,15.1,29.45,South,169,0.0,0.0,86,0.00,,CLR,0.00,0.00,VWS V14.01,2013-01-07 10:25:00,
2013-01-07 04:28:00,18.6,15.1,29.45,South,170,1.0,1.0,86,0.00,,CLR,0.00,0.00,VWS V14.01,2013-01-07 10:28:00,
2013-01-07 04:30:00,18.7,15.2,29.44,South,170,0.0,0.0,86,0.00,,CLR,0.00,0.00,VWS V14.01,2013-01-07 10:30:00,
2013-01-07 04:34:00,18.7,15.2,29.45,South,170,0.0,0.0,86,0.00,,CLR,0.00,0.00,VWS V14.01,2013-01-07 10:34:00,
2013-01-07 04:36:00,18.7,15.2,29.45,South,170,0.0,1.0,86,0.00,,CLR,0.00,0.00,VWS V14.01,2013-01-07 10:36:00,
2013-01-07 04:39:00,18.7,15.2,29.45,South,170,0.0,1.0,86,0.00,,CLR,0.00,0.00,VWS V14.01,2013-01-07 10:39:00,
2013-01-07 04:41:00,18.7,15.2,29.45,South,169,0.0,0.0,86,0.00,,CLR,0.00,0.00,VWS V14.01,2013-01-07 10:41:00,
2013-01-07 04:43:00,18.8,15.3,29.45,South,170,0.0,1.0,86,0.00,,CLR,0.00,0.00,VWS V14.01,2013-01-07 10:43:00,
2013-01-07 04:44:00,18.8,15.3,29.45,South,170,0.0,1.0,86,0.00,,CLR,0.00,0.00,VWS V14.01,2013-01-07 10:44:00,
2013-01-07 04:49:00,18.8,15.3,29.44,South,170,0.0,0.0,86,0.00,,CLR,0.00,0.00,VWS V14.01,2013-01-07 10:49:00,
2013-01-07 04:50:00,18.8,15.3,29.44,South,170,0.0,0.0,86,0.00,,CLR,0.00,0.00,VWS V14.01,2013-01-07 10:50:00,
2013-01-07 04:51:00,18.8,15.1,29.44,South,169,0.0,0.0,85,0.00,,CLR,0.00,0.00,VWS V14.01,2013-01-07 10:51:00,
2013-01-07 04:56:00,18.9,15.1,29.44,South,170,0.0,2.0,85,0.00,,CLR,0.00,0.00,VWS V14.01,2013-01-07 10:56:00,
2013-01-07 04:58:00,18.9,15.1,29.44,South,169,0.0,1.0,85,0.00,,CLR,0.00,0.00,VWS V14.01,2013-01-07 10:58:00,
2013-01-07 05:00:00,18.9,15.1,29.44,SSE,161,2.0,2.0,85,0.00,,CLR,0.00,0.00,VWS V14.01,2013-01-07 11:00:00,
2013-01-07 05:02:00,18.9,15.1,29.45,SSE,161,0.0,0.0,85,0.00,,CLR,0.00,0.00,VWS V14.01,2013-01-07 11:02:00,
2013-01-07 05:03:00,18.8,15.1,29.44,SSE,161,0.0,0.0,85,0.00,,CLR,0.00,0.00,VWS V14.01,2013-01-07 11:03:00,
2013-01-07 05:07:00,18.8,15.1,29.44,SSE,161,1.0,1.0,85,0.00,,CLR,0.00,0.00,VWS V14.01,2013-01-07 11:07:00,
2013-01-07 05:08:00,18.8,15.1,29.44,SSE,161,0.0,1.0,85,0.00,,CLR,0.00,0.00,VWS V14.01,2013-01-07 11:08:00,
2013-01-07 05:11:00,18.8,15.1,29.44,SSE,161,0.0,1.0,85,0.00,,CLR,0.00,0.00,VWS V14.01,2013-01-07 11:11:00,
2013-01-07 05:13:00,18.8,15.1,29.44,SSE,161,0.0,0.0,85,0.00,,CLR,0.00,0.00,VWS V14.01,2013-01-07 11:13:00,
2013-01-07 05:14:00,18.8,15.1,29.44,SSE,161,0.0,1.0,85,0.00,,CLR,0.00,0.00,VWS V14.01,2013-01-07 11:14:00,
2013-01-07 05:19:00,18.9,15.1,29.44,South,171,0.0,0.0,85,0.00,,CLR,0.00,0.00,VWS V14.01,2013-01-07 11:19:00,
2013-01-07 05:23:00,19.1,15.3,29.44,ESE,123,5.0,5.0,85,0.00,,CLR,0.00,0.00,VWS V14.01,2013-01-07 11:23:00,
2013-01-07 05:25:00,19.2,15.4,29.44,South,172,0.0,2.0,85,0.00,,CLR,0.00,0.00,VWS V14.01,2013-01-07 11:25:00,
2013-01-07 05:30:00,19.4,15.6,29.44,SSW,202,0.0,0.0,85,0.00,,CLR,0.00,0.00,VWS V14.01,2013-01-07 11:30:00,
2013-01-07 05:31:00,19.4,15.6,29.44,SSW,202,0.0,0.0,85,0.00,,CLR,0.00,0.00,VWS V14.01,2013-01-07 11:31:00,
2013-01-07 05:32:00,19.4,15.6,29.44,SSW,194,0.0,2.0,85,0.00,,CLR,0.00,0.00,VWS V14.01,2013-01-07 11:32:00,
2013-01-07 05:36:00,19.6,15.8,29.44,SSW,194,1.0,4.0,85,0.00,,CLR,0.00,0.00,VWS V14.01,2013-01-07 11:36:00,
2013-01-07 05:41:00,19.7,15.9,29.44,South,190,0.0,2.0,85,0.00,,CLR,0.00,0.00,VWS V14.01,2013-01-07 11:41:00,
2013-01-07 05:42:00,19.7,15.9,29.44,South,171,0.0,2.0,85,0.00,,CLR,0.00,0.00,VWS V14.01,2013-01-07 11:42:00,
2013-01-07 05:46:00,19.7,15.9,29.44,South,171,2.0,2.0,85,0.00,,CLR,0.00,0.00,VWS V14.01,2013-01-07 11:46:00,
2013-01-07 05:47:00,19.7,15.9,29.44,South,176,1.0,2.0,85,0.00,,CLR,0.00,0.00,VWS V14.01,2013-01-07 11:47:00,
2013-01-07 05:48:00,19.7,15.9,29.44,SSW,202,0.0,3.0,85,0.00,,CLR,0.00,0.00,VWS V14.01,2013-01-07 11:48:00,
2013-01-07 05:52:00,19.7,15.7,29.44,ESE,114,0.0,0.0,84,0.00,,CLR,0.00,0.00,VWS V14.01,2013-01-07 11:52:00,
2013-01-07 05:53:00,19.7,15.7,29.44,ESE,114,0.0,0.0,84,0.00,,CLR,0.00,0.00,VWS V14.01,2013-01-07 11:53:00,
2013-01-07 05:57:00,19.7,15.7,29.44,ESE,121,0.0,0.0,84,0.00,,CLR,0.00,0.00,VWS V14.01,2013-01-07 11:57:00,
2013-01-07 05:59:00,19.7,15.7,29.44,SW,215,0.0,5.0,84,0.00,,CLR,0.00,0.00,VWS V14.01,2013-01-07 11:59:00,
2013-01-07 06:02:00,19.8,15.8,29.44,SSE,149,0.0,2.0,84,0.00,,CLR,0.00,0.00,VWS V14.01,2013-01-07 12:02:00,
2013-01-07 06:06:00,19.8,15.8,29.44,SSE,149,0.0,1.0,84,0.00,,CLR,0.00,0.00,VWS V14.01,2013-01-07 12:06:00,
2013-01-07 06:08:00,19.9,15.9,29.44,South,180,1.0,7.0,84,0.00,,CLR,0.00,0.00,VWS V14.01,2013-01-07 12:08:00,
2013-01-07 06:13:00,19.9,15.9,29.44,SE,138,0.0,2.0,84,0.00,,CLR,0.00,0.00,VWS V14.01,2013-01-07 12:13:00,
2013-01-07 06:18:00,20.0,15.9,29.44,SE,135,0.0,0.0,84,0.00,,CLR,0.00,0.00,VWS V14.01,2013-01-07 12:18:00,
2013-01-07 06:23:00,20.1,15.8,29.44,SSE,158,0.0,2.0,83,0.00,,CLR,0.00,0.00,VWS V14.01,2013-01-07 12:23:00,
2013-01-07 06:25:00,20.1,15.8,29.44,SSE,164,0.0,0.0,83,0.00,,CLR,0.00,0.00,VWS V14.01,2013-01-07 12:25:00,
2013-01-07 06:30:00,20.0,15.7,29.44,South,178,0.0,1.0,83,0.00,,CLR,0.00,0.00,VWS V14.01,2013-01-07 12:30:00,
2013-01-07 06:31:00,19.9,15.6,29.44,East,95,0.0,1.0,83,0.00,,CLR,0.00,0.00,VWS V14.01,2013-01-07 12:31:00,
2013-01-07 06:33:00,19.9,15.6,29.44,East,99,0.0,4.0,83,0.00,,CLR,0.00,0.00,VWS V14.01,2013-01-07 12:33:00,
2013-01-07 06:35:00,19.9,15.6,29.44,ESE,119,1.0,7.0,83,0.00,,CLR,0.00,0.00,VWS V14.01,2013-01-07 12:35:00,
2013-01-07 06:38:00,19.8,15.5,29.44,SSE,165,2.0,2.0,83,0.00,,CLR,0.00,0.00,VWS V14.01,2013-01-07 12:38:00,
2013-01-07 06:41:00,19.7,15.4,29.44,SSE,149,1.0,4.0,83,0.00,,CLR,0.00,0.00,VWS V14.01,2013-01-07 12:41:00,
2013-01-07 06:44:00,19.7,15.4,29.44,ESE,120,0.0,2.0,83,0.00,,CLR,0.00,0.00,VWS V14.01,2013-01-07 12:44:00,
2013-01-07 06:46:00,19.7,15.4,29.44,SSE,167,0.0,4.0,83,0.00,,CLR,0.00,0.00,VWS V14.01,2013-01-07 12:46:00,
2013-01-07 06:47:00,19.7,15.4,29.44,SSE,157,1.0,1.0,83,0.00,,CLR,0.00,0.00,VWS V14.01,2013-01-07 12:47:00,
2013-01-07 06:51:00,19.7,15.4,29.43,SE,142,0.0,2.0,83,0.00,,CLR,0.00,0.00,VWS V14.01,2013-01-07 12:51:00,
2013-01-07 06:52:00,19.7,15.4,29.43,SE,142,0.0,1.0,83,0.00,,CLR,0.00,0.00,VWS V14.01,2013-01-07 12:52:00,
2013-01-07 06:53:00,19.7,15.4,29.44,SE,142,0.0,1.0,83,0.00,,CLR,0.00,0.00,VWS V14.01,2013-01-07 12:53:00,
2013-01-07 06:55:00,19.7,15.4,29.44,ESE,121,0.0,4.0,83,0.00,,CLR,0.00,0.00,VWS V14.01,2013-01-07 12:55:00,
2013-01-07 06:58:00,19.7,15.4,29.44,SSE,155,0.0,2.0,83,0.00,,CLR,0.00,0.00,VWS V14.01,2013-01-07 12:58:00,
2013-01-07 07:00:00,19.7,15.4,29.44,NNE,28,1.0,1.0,83,0.00,,CLR,0.00,0.00,VWS V14.01,2013-01-07 13:00:00,
2013-01-07 07:01:00,19.7,15.4,29.44,ESE,123,0.0,1.0,83,0.00,,CLR,0.00,0.00,VWS V14.01,2013-01-07 13:01:00,
2013-01-07 07:05:00,19.7,15.4,29.44,South,174,0.0,2.0,83,0.00,,CLR,0.00,0.00,VWS V14.01,2013-01-07 13:05:00,
2013-01-07 07:06:00,19.7,15.4,29.44,South,174,1.0,1.0,83,0.00,,CLR,0.00,0.00,VWS V14.01,2013-01-07 13:06:00,
2013-01-07 07:07:00,19.7,15.4,29.44,East,85,0.0,1.0,83,0.00,,CLR,0.00,0.00,VWS V14.01,2013-01-07 13:07:00,
2013-01-07 07:09:00,19.7,15.4,29.44,SSE,152,0.0,1.0,83,0.00,,CLR,0.00,0.00,VWS V14.01,2013-01-07 13:09:00,
2013-01-07 07:14:00,19.7,15.4,29.44,SSE,152,1.0,2.0,83,0.00,,CLR,0.00,0.00,VWS V14.01,2013-01-07 13:14:00,
2013-01-07 07:16:00,19.7,15.4,29.44,South,186,2.0,3.0,83,0.00,,CLR,0.00,0.00,VWS V14.01,2013-01-07 13:16:00,
2013-01-07 07:17:00,19.7,15.4,29.44,South,186,0.0,2.0,83,0.00,,CLR,0.00,0.00,VWS V14.01,2013-01-07 13:17:00,
2013-01-07 07:18:00,19.7,15.4,29.44,South,186,0.0,0.0,83,0.00,,CLR,0.00,0.00,VWS V14.01,2013-01-07 13:18:00,
2013-01-07 07:21:00,19.7,15.4,29.44,South,186,1.0,2.0,83,0.00,,CLR,0.00,5.00,VWS V14.01,2013-01-07 13:21:00,
2013-01-07 07:22:00,19.7,15.4,29.44,South,186,0.0,1.0,83,0.00,,CLR,0.00,5.00,VWS V14.01,2013-01-07 13:22:00,
2013-01-07 07:24:00,19.7,15.4,29.44,South,186,0.0,0.0,83,0.00,,CLR,0.00,5.00,VWS V14.01,2013-01-07 13:24:00,
2013-01-07 07:28:00,19.7,15.4,29.44,SE,135,0.0,0.0,83,0.00,,CLR,0.00,7.00,VWS V14.01,2013-01-07 13:28:00,
2013-01-07 07:29:00,19.6,15.3,29.44,SE,135,0.0,0.0,83,0.00,,CLR,0.00,9.00,VWS V14.01,2013-01-07 13:29:00,
2013-01-07 07:31:00,19.6,15.3,29.44,ESE,114,0.0,0.0,83,0.00,,CLR,0.00,9.00,VWS V14.01,2013-01-07 13:31:00,
2013-01-07 07:34:00,19.6,15.6,29.44,South,190,0.0,1.0,84,0.00,,CLR,0.00,11.00,VWS V14.01,2013-01-07 13:34:00,
2013-01-07 07:37:00,19.7,15.7,29.44,South,178,2.0,2.0,84,0.00,,CLR,0.00,12.00,VWS V14.01,2013-01-07 13:37:00,
2013-01-07 07:38:00,19.7,15.7,29.44,South,178,0.0,2.0,84,0.00,,CLR,0.00,12.00,VWS V14.01,2013-01-07 13:38:00,
2013-01-07 07:41:00,19.7,15.7,29.43,SE,126,1.0,2.0,84,0.00,,CLR,0.00,14.00,VWS V14.01,2013-01-07 13:41:00,
2013-01-07 07:46:00,19.7,15.7,29.43,ENE,64,1.0,2.0,84,0.00,,CLR,0.00,18.00,VWS V14.01,2013-01-07 13:46:00,
2013-01-07 07:47:00,19.7,15.7,29.44,East,94,0.0,4.0,84,0.00,,CLR,0.00,18.00,VWS V14.01,2013-01-07 13:47:00,
2013-01-07 07:50:00,19.9,15.9,29.43,South,171,0.0,5.0,84,0.00,,CLR,0.00,19.00,VWS V14.01,2013-01-07 13:50:00,
2013-01-07 07:54:00,20.2,16.4,29.43,South,177,0.0,1.0,85,0.00,,CLR,0.00,23.00,VWS V14.01,2013-01-07 13:54:00,
2013-01-07 07:55:00,20.2,16.4,29.43,South,173,2.0,4.0,85,0.00,,CLR,0.00,23.00,VWS V14.01,2013-01-07 13:55:00,
2013-01-07 07:56:00,20.3,16.5,29.43,South,176,1.0,2.0,85,0.00,,CLR,0.00,23.00,VWS V14.01,2013-01-07 13:56:00,
2013-01-07 08:00:00,20.6,16.8,29.43,South,175,0.0,2.0,85,0.00,,CLR,0.00,33.00,VWS V14.01,2013-01-07 14:00:00,
2013-01-07 08:01:00,20.6,16.8,29.43,South,169,1.0,5.0,85,0.00,,CLR,0.00,33.00,VWS V14.01,2013-01-07 14:01:00,
2013-01-07 08:04:00,20.8,17.0,29.43,SE,145,4.0,4.0,85,0.00,,CLR,0.00,37.00,VWS V14.01,2013-01-07 14:04:00,
2013-01-07 08:06:00,21.0,17.2,29.43,SSW,194,1.0,2.0,85,0.00,,CLR,0.00,33.00,VWS V14.01,2013-01-07 14:06:00,
2013-01-07 08:07:00,21.0,17.2,29.43,ESE,106,0.0,2.0,85,0.00,,CLR,0.00,32.00,VWS V14.01,2013-01-07 14:07:00,
2013-01-07 08:11:00,21.3,17.5,29.43,South,176,2.0,2.0,85,0.00,,CLR,0.00,51.00,VWS V14.01,2013-01-07 14:11:00,
2013-01-07 08:14:00,21.5,18.0,29.43,South,180,1.0,2.0,86,0.00,,CLR,0.00,62.00,VWS V14.01,2013-01-07 14:14:00,
2013-01-07 08:15:00,21.6,18.1,29.43,ESE,117,1.0,4.0,86,0.00,,CLR,0.00,74.00,VWS V14.01,2013-01-07 14:15:00,
2013-01-07 08:19:00,21.9,18.1,29.43,South,177,2.0,6.0,85,0.00,,CLR,0.00,104.00,VWS V14.01,2013-01-07 14:19:00,
2013-01-07 08:21:00,22.1,18.3,29.43,SE,126,6.0,6.0,85,0.00,,CLR,0.00,98.00,VWS V14.01,2013-01-07 14:21:00,
2013-01-07 08:22:00,22.2,18.7,29.43,ESE,112,0.0,6.0,86,0.00,,CLR,0.00,91.00,VWS V14.01,2013-01-07 14:22:00,
2013-01-07 08:24:00,22.3,18.8,29.43,WSW,238,0.0,6.0,86,0.00,,CLR,0.00,98.00,VWS V14.01,2013-01-07 14:24:00,
2013-01-07 08:27:00,22.6,18.8,29.43,SSE,147,1.0,5.0,85,0.00,,CLR,0.00,95.00,VWS V14.01,2013-01-07 14:27:00,
2013-01-07 08:29:00,22.7,18.9,29.43,South,175,1.0,5.0,85,0.00,,CLR,0.00,104.00,VWS V14.01,2013-01-07 14:29:00,
2013-01-07 08:30:00,22.8,19.0,29.43,ESE,107,0.0,5.0,85,0.00,,CLR,0.00,104.00,VWS V14.01,2013-01-07 14:30:00,
2013-01-07 08:34:00,23.1,19.3,29.43,SSW,206,0.0,9.0,85,0.00,,CLR,0.00,156.00,VWS V14.01,2013-01-07 14:34:00,
2013-01-07 08:35:00,23.2,19.4,29.43,ESE,121,1.0,2.0,85,0.00,,CLR,0.00,160.00,VWS V14.01,2013-01-07 14:35:00,
2013-01-07 08:37:00,23.3,19.5,29.43,SE,138,2.0,5.0,85,0.00,,CLR,0.00,165.00,VWS V14.01,2013-01-07 14:37:00,
2013-01-07 08:38:00,23.4,19.6,29.43,SSE,149,4.0,6.0,85,0.00,,CLR,0.00,160.00,VWS V14.01,2013-01-07 14:38:00,
2013-01-07 08:43:00,23.8,19.7,29.43,SSE,168,0.0,4.0,84,0.00,,CLR,0.00,183.00,VWS V14.01,2013-01-07 14:43:00,
2013-01-07 08:44:00,23.8,19.7,29.43,SSE,156,4.0,5.0,84,0.00,,CLR,0.00,186.00,VWS V14.01,2013-01-07 14:44:00,
2013-01-07 08:46:00,23.9,19.8,29.43,SE,134,2.0,4.0,84,0.00,,CLR,0.00,192.00,VWS V14.01,2013-01-07 14:46:00,
2013-01-07 08:48:00,24.1,20.0,29.43,SSE,153,2.0,7.0,84,0.00,,CLR,0.00,195.00,VWS V14.01,2013-01-07 14:48:00,
2013-01-07 08:52:00,24.3,20.2,29.43,SSE,160,1.0,4.0,84,0.00,,CLR,0.00,206.00,VWS V14.01,2013-01-07 14:52:00,
2013-01-07 08:53:00,24.3,19.9,29.43,SW,218,2.0,5.0,83,0.00,,CLR,0.00,209.00,VWS V14.01,2013-01-07 14:53:00,
2013-01-07 08:54:00,24.4,20.0,29.43,SSW,200,1.0,5.0,83,0.00,,CLR,0.00,211.00,VWS V14.01,2013-01-07 14:54:00,
2013-01-07 08:55:00,24.4,20.0,29.43,WSW,238,6.0,6.0,83,0.00,,CLR,0.00,214.00,VWS V14.01,2013-01-07 14:55:00,
2013-01-07 08:59:00,24.7,20.3,29.43,South,179,1.0,6.0,83,0.00,,CLR,0.00,229.00,VWS V14.01,2013-01-07 14:59:00,
2013-01-07 09:00:00,24.7,20.3,29.43,SE,133,1.0,4.0,83,0.00,,CLR,0.00,232.00,VWS V14.01,2013-01-07 15:00:00,
2013-01-07 09:01:00,24.8,20.4,29.43,SE,133,1.0,1.0,83,0.00,,CLR,0.00,234.00,VWS V14.01,2013-01-07 15:01:00,
2013-01-07 09:05:00,25.0,20.6,29.43,ESE,117,2.0,7.0,83,0.00,,CLR,0.00,253.00,VWS V14.01,2013-01-07 15:05:00,
2013-01-07 09:06:00,25.1,20.7,29.43,ESE,118,0.0,6.0,83,0.00,,CLR,0.00,257.00,VWS V14.01,2013-01-07 15:06:00,
2013-01-07 09:07:00,25.1,20.7,29.43,ESE,122,5.0,5.0,83,0.00,,CLR,0.00,258.00,VWS V14.01,2013-01-07 15:07:00,
2013-01-07 09:12:00,25.4,20.7,29.43,ESE,114,4.0,6.0,82,0.00,,CLR,0.00,287.00,VWS V14.01,2013-01-07 15:12:00,
2013-01-07 09:14:00,25.5,20.8,29.43,ESE,105,2.0,5.0,82,0.00,,CLR,0.00,311.00,VWS V14.01,2013-01-07 15:14:00,
2013-01-07 09:17:00,25.7,21.0,29.43,SE,142,0.0,3.0,82,0.00,,CLR,0.00,323.00,VWS V14.01,2013-01-07 15:17:00,
2013-01-07 09:18:00,25.7,21.0,29.42,SE,140,0.0,4.0,82,0.00,,CLR,0.00,327.00,VWS V14.01,2013-01-07 15:18:00,
2013-01-07 09:19:00,25.8,20.8,29.42,SSE,159,4.0,4.0,81,0.00,,CLR,0.00,332.00,VWS V14.01,2013-01-07 15:19:00,
2013-01-07 09:21:00,26.0,21.0,29.42,South,176,5.0,7.0,81,0.00,,CLR,0.00,338.00,VWS V14.01,2013-01-07 15:21:00,
2013-01-07 09:24:00,26.2,21.2,29.42,ESE,123,1.0,7.0,81,0.00,,CLR,0.00,343.00,VWS V14.01,2013-01-07 15:24:00,
2013-01-07 09:26:00,26.3,21.3,29.42,SSE,149,1.0,2.0,81,0.00,,CLR,0.00,348.00,VWS V14.01,2013-01-07 15:26:00,
2013-01-07 09:28:00,26.5,21.5,29.42,SSW,200,0.0,3.0,81,0.00,,CLR,0.00,323.00,VWS V14.01,2013-01-07 15:28:00,
2013-01-07 09:29:00,26.6,21.6,29.42,South,178,1.0,7.0,81,0.00,,CLR,0.00,299.00,VWS V14.01,2013-01-07 15:29:00,
2013-01-07 09:30:00,26.6,21.3,29.42,NNE,32,2.0,5.0,80,0.00,,CLR,0.00,294.00,VWS V14.01,2013-01-07 15:30:00,
2013-01-07 09:35:00,27.0,21.7,29.42,SSE,157,0.0,12.0,80,0.00,,CLR,0.00,264.00,VWS V14.01,2013-01-07 15:35:00,
2013-01-07 09:36:00,27.1,21.8,29.42,SE,133,1.0,2.0,80,0.00,,CLR,0.00,322.00,VWS V14.01,2013-01-07 15:36:00,
2013-01-07 09:37:00,27.2,21.9,29.42,SSE,152,1.0,5.0,80,0.00,,CLR,0.00,360.00,VWS V14.01,2013-01-07 15:37:00,
2013-01-07 09:38:00,27.3,22.0,29.42,ESE,117,0.0,3.0,80,0.00,,CLR,0.00,364.00,VWS V14.01,2013-01-07 15:38:00,
2013-01-07 09:42:00,27.7,22.4,29.42,SSE,155,4.0,5.0,80,0.00,,CLR,0.00,369.00,VWS V14.01,2013-01-07 15:42:00,
2013-01-07 09:44:00,27.9,22.2,29.42,East,80,1.0,2.0,79,0.00,,CLR,0.00,374.00,VWS V14.01,2013-01-07 15:44:00,
2013-01-07 09:45:00,28.0,22.3,29.42,SSE,149,5.0,5.0,79,0.00,,CLR,0.00,374.00,VWS V14.01,2013-01-07 15:45:00,
2013-01-07 09:47:00,28.2,22.5,29.42,ESE,115,5.0,8.0,79,0.00,,CLR,0.00,383.00,VWS V14.01,2013-01-07 15:47:00,
2013-01-07 09:51:00,28.5,22.5,29.42,West,261,2.0,4.0,78,0.00,,CLR,0.00,388.00,VWS V14.01,2013-01-07 15:51:00,
2013-01-07 09:53:00,28.6,22.3,29.42,SSW,201,0.0,5.0,77,0.00,,CLR,0.00,397.00,VWS V14.01,2013-01-07 15:53:00,
2013-01-07 09:54:00,28.7,22.4,29.42,SW,227,1.0,5.0,77,0.00,,CLR,0.00,397.00,VWS V14.01,2013-01-07 15:54:00,
2013-01-07 09:56:00,28.8,22.5,29.42,SE,138,0.0,5.0,77,0.00,,CLR,0.00,399.00,VWS V14.01,2013-01-07 15:56:00,
2013-01-07 09:59:00,29.0,22.7,29.42,South,178,0.0,6.0,77,0.00,,CLR,0.00,404.00,VWS V14.01,2013-01-07 15:59:00,
2013-01-07 10:00:00,29.1,22.8,29.42,WSW,244,0.0,5.0,77,0.00,,CLR,0.00,408.00,VWS V14.01,2013-01-07 16:00:00,
2013-01-07 10:04:00,29.4,23.1,29.42,South,191,10.0,10.0,77,0.00,,CLR,0.00,415.00,VWS V14.01,2013-01-07 16:04:00,
2013-01-07 10:06:00,29.6,23.0,29.42,SW,214,1.0,4.0,76,0.00,,CLR,0.00,420.00,VWS V14.01,2013-01-07 16:06:00,
2013-01-07 10:07:00,29.6,23.0,29.42,South,191,0.0,5.0,76,0.00,,CLR,0.00,420.00,VWS V14.01,2013-01-07 16:07:00,
2013-01-07 10:10:00,29.8,23.2,29.42,East,99,2.0,5.0,76,0.00,,CLR,0.00,427.00,VWS V14.01,2013-01-07 16:10:00,
2013-01-07 10:11:00,29.9,23.3,29.42,South,173,2.0,2.0,76,0.00,,CLR,0.00,424.00,VWS V14.01,2013-01-07 16:11:00,
2013-01-07 10:12:00,30.0,23.4,29.42,SW,217,4.0,8.0,76,0.00,,CLR,0.00,431.00,VWS V14.01,2013-01-07 16:12:00,
2013-01-07 10:15:00,30.2,23.2,29.42,SE,141,1.0,4.0,75,0.00,,CLR,0.00,436.00,VWS V14.01,2013-01-07 16:15:00,
2013-01-07 10:17:00,30.3,23.3,29.42,South,176,2.0,4.0,75,0.00,,CLR,0.00,438.00,VWS V14.01,2013-01-07 16:17:00,
2013-01-07 10:19:00,30.4,23.4,29.42,South,178,2.0,6.0,75,0.00,,CLR,0.00,445.00,VWS V14.01,2013-01-07 16:19:00,
2013-01-07 10:21:00,30.4,23.1,29.42,SW,230,6.0,6.0,74,0.00,,CLR,0.00,445.00,VWS V14.01,2013-01-07 16:21:00,
2013-01-07 10:22:00,30.3,23.3,29.42,SE,134,1.0,9.0,75,0.00,,CLR,0.00,446.00,VWS V14.01,2013-01-07 16:22:00,
2013-01-07 10:26:00,30.3,23.3,29.42,SSE,148,1.0,5.0,75,0.00,,CLR,0.00,455.00,VWS V14.01,2013-01-07 16:26:00,
2013-01-07 10:27:00,30.4,23.4,29.42,ESE,109,1.0,6.0,75,0.00,,CLR,0.00,455.00,VWS V14.01,2013-01-07 16:27:00,
2013-01-07 10:29:00,30.5,23.5,29.42,East,90,6.0,6.0,75,0.00,,CLR,0.00,459.00,VWS V14.01,2013-01-07 16:29:00,
2013-01-07 10:30:00,30.6,23.6,29.42,South,173,2.0,7.0,75,0.00,,CLR,0.00,462.00,VWS V14.01,2013-01-07 16:30:00,
2013-01-07 10:32:00,30.7,23.7,29.42,SE,132,2.0,10.0,75,0.00,,CLR,0.00,462.00,VWS V14.01,2013-01-07 16:32:00,
2013-01-07 10:34:00,30.9,23.6,29.42,WSW,241,5.0,5.0,74,0.00,,CLR,0.00,466.00,VWS V14.01,2013-01-07 16:34:00,
2013-01-07 10:35:00,30.9,23.6,29.41,South,179,4.0,11.0,74,0.00,,CLR,0.00,469.00,VWS V14.01,2013-01-07 16:35:00,
2013-01-07 10:38:00,31.0,23.7,29.41,SE,144,5.0,6.0,74,0.00,,CLR,0.00,471.00,VWS V14.01,2013-01-07 16:38:00,
2013-01-07 10:39:00,31.1,24.1,29.41,ESE,122,4.0,6.0,75,0.00,,CLR,0.00,476.00,VWS V14.01,2013-01-07 16:39:00,
2013-01-07 10:40:00,31.1,24.1,29.41,SE,127,1.0,5.0,75,0.00,,CLR,0.00,475.00,VWS V14.01,2013-01-07 16:40:00,
2013-01-07 10:46:00,31.3,24.0,29.40,SSE,148,1.0,6.0,74,0.00,,CLR,0.00,485.00,VWS V14.01,2013-01-07 16:46:00,
2013-01-07 10:47:00,31.4,24.1,29.41,SE,146,4.0,7.0,74,0.00,,CLR,0.00,485.00,VWS V14.01,2013-01-07 16:47:00,
2013-01-07 10:48:00,31.5,24.2,29.41,East,99,2.0,9.0,74,0.00,,CLR,0.00,485.00,VWS V14.01,2013-01-07 16:48:00,
2013-01-07 10:49:00,31.5,24.2,29.41,SE,141,2.0,7.0,74,0.00,,CLR,0.00,490.00,VWS V14.01,2013-01-07 16:49:00,
2013-01-07 10:54:00,31.9,24.6,29.40,WSW,244,2.0,4.0,74,0.00,,CLR,0.00,497.00,VWS V14.01,2013-01-07 16:54:00,
2013-01-07 10:55:00,31.9,24.6,29.40,South,190,4.0,8.0,74,0.00,,CLR,0.00,496.00,VWS V14.01,2013-01-07 16:55:00,
2013-01-07 10:56:00,31.9,24.2,29.40,SE,133,0.0,4.0,73,0.00,,CLR,0.00,499.00,VWS V14.01,2013-01-07 16:56:00,
2013-01-07 11:01:00,32.0,24.7,29.39,SSW,192,5.0,5.0,74,0.00,,CLR,0.00,506.00,VWS V14.01,2013-01-07 17:01:00,
2013-01-07 11:03:00,32.1,24.4,29.39,ESE,121,4.0,9.0,73,0.00,,CLR,0.00,508.00,VWS V14.01,2013-01-07 17:03:00,
2013-01-07 11:05:00,32.1,24.4,29.39,WSW,240,2.0,7.0,73,0.00,,CLR,0.00,510.00,VWS V14.01,2013-01-07 17:05:00,
2013-01-07 11:06:00,32.1,24.4,29.39,SW,224,2.0,5.0,73,0.00,,CLR,0.00,512.00,VWS V14.01,2013-01-07 17:06:00,
2013-01-07 11:08:00,32.1,24.8,29.39,SE,140,8.0,13.0,74,0.00,,CLR,0.00,512.00,VWS V14.01,2013-01-07 17:08:00,
2013-01-07 11:09:00,32.1,24.8,29.38,SW,230,4.0,8.0,74,0.00,,CLR,0.00,515.00,VWS V14.01,2013-01-07 17:09:00,
2013-01-07 11:12:00,32.2,24.9,29.38,SW,225,4.0,7.0,74,0.00,,CLR,0.00,515.00,VWS V14.01,2013-01-07 17:12:00,
2013-01-07 11:14:00,32.2,24.9,29.38,SW,217,5.0,5.0,74,0.00,,CLR,0.00,520.00,VWS V14.01,2013-01-07 17:14:00,
2013-01-07 11:17:00,32.3,25.0,29.38,SSW,198,1.0,7.0,74,0.00,,CLR,0.00,524.00,VWS V14.01,2013-01-07 17:17:00,
2013-01-07 11:18:00,32.3,24.6,29.38,East,98,2.0,4.0,73,0.00,,CLR,0.00,526.00,VWS V14.01,2013-01-07 17:18:00,
2013-01-07 11:22:00,32.6,24.9,29.38,South,173,4.0,7.0,73,0.00,,CLR,0.00,529.00,VWS V14.01,2013-01-07 17:22:00,
2013-01-07 11:25:00,32.6,24.6,29.38,SW,233,2.0,6.0,72,0.00,,CLR,0.00,531.00,VWS V14.01,2013-01-07 17:25:00,
2013-01-07 11:26:00,32.6,24.9,29.38,SW,232,2.0,5.0,73,0.00,,CLR,0.00,533.00,VWS V14.01,2013-01-07 17:26:00,
2013-01-07 11:28:00,32.7,24.7,29.38,South,173,1.0,8.0,72,0.00,,CLR,0.00,533.00,VWS V14.01,2013-01-07 17:28:00,
2013-01-07 11:32:00,32.8,25.1,29.37,SE,130,0.0,4.0,73,0.00,,CLR,0.00,534.00,VWS V14.01,2013-01-07 17:32:00,
2013-01-07 11:33:00,32.9,24.9,29.37,SW,220,1.0,5.0,72,0.00,,CLR,0.00,538.00,VWS V14.01,2013-01-07 17:33:00,
2013-01-07 11:38:00,33.0,25.0,29.37,South,188,2.0,8.0,72,0.00,,CLR,0.00,543.00,VWS V14.01,2013-01-07 17:38:00,
2013-01-07 11:39:00,33.0,25.0,29.37,SW,235,2.0,7.0,72,0.00,,CLR,0.00,541.00,VWS V14.01,2013-01-07 17:39:00,
2013-01-07 11:40:00,33.0,25.0,29.37,SW,223,3.0,3.0,72,0.00,,CLR,0.00,541.00,VWS V14.01,2013-01-07 17:40:00,
2013-01-07 11:43:00,33.0,25.3,29.37,SW,223,0.0,6.0,73,0.00,,CLR,0.00,522.00,VWS V14.01,2013-01-07 17:43:00,
2013-01-07 11:45:00,33.0,25.3,29.37,SSW,207,5.0,6.0,73,0.00,,CLR,0.00,526.00,VWS V14.01,2013-01-07 17:45:00,
2013-01-07 11:46:00,33.0,25.3,29.37,South,182,1.0,6.0,73,0.00,,CLR,0.00,538.00,VWS V14.01,2013-01-07 17:46:00,
2013-01-07 11:51:00,33.2,25.5,29.36,WSW,248,3.0,6.0,73,0.00,,CLR,0.00,543.00,VWS V14.01,2013-01-07 17:51:00,
2013-01-07 11:52:00,33.2,25.5,29.36,East,87,2.0,8.0,73,0.00,,CLR,0.00,543.00,VWS V14.01,2013-01-07 17:52:00,
2013-01-07 11:53:00,33.3,25.6,29.36,NE,56,2.0,4.0,73,0.00,,CLR,0.00,543.00,VWS V14.01,2013-01-07 17:53:00,
2013-01-07 11:54:00,33.4,25.7,29.36,South,184,6.0,6.0,73,0.00,,CLR,0.00,545.00,VWS V14.01,2013-01-07 17:54:00,
2013-01-07 11:57:00,33.6,25.9,29.36,SSE,151,2.0,6.0,73,0.00,,CLR,0.00,545.00,VWS V14.01,2013-01-07 17:57:00,
2013-01-07 11:58:00,33.7,26.0,29.37,WSW,239,4.0,6.0,73,0.00,,CLR,0.00,545.00,VWS V14.01,2013-01-07 17:58:00,
2013-01-07 12:02:00,33.8,26.1,29.36,WSW,252,0.0,7.0,73,0.00,,CLR,0.00,543.00,VWS V14.01,2013-01-07 18:02:00,
2013-01-07 12:03:00,33.8,26.1,29.37,ESE,107,2.0,4.0,73,0.00,,CLR,0.00,543.00,VWS V14.01,2013-01-07 18:03:00,
2013-01-07 12:04:00,33.9,26.2,29.36,ESE,109,4.0,4.0,73,0.00,,CLR,0.00,545.00,VWS V14.01,2013-01-07 18:04:00,
2013-01-07 12:09:00,34.4,26.3,29.36,SE,138,0.0,5.0,72,0.00,,CLR,0.00,552.00,VWS V14.01,2013-01-07 18:09:00,
2013-01-07 12:10:00,34.4,26.3,29.36,SW,219,5.0,5.0,72,0.00,,CLR,0.00,550.00,VWS V14.01,2013-01-07 18:10:00,
2013-01-07 12:11:00,34.4,26.3,29.36,WSW,240,1.0,6.0,72,0.00,,CLR,0.00,547.00,VWS V14.01,2013-01-07 18:11:00,
2013-01-07 12:12:00,34.4,26.3,29.36,South,186,2.0,4.0,72,0.00,,CLR,0.00,548.00,VWS V14.01,2013-01-07 18:12:00,
2013-01-07 12:16:00,34.4,26.3,29.35,SW,221,2.0,3.0,72,0.00,,CLR,0.00,547.00,VWS V14.01,2013-01-07 18:16:00,
2013-01-07 12:18:00,34.4,26.7,29.35,SSE,162,2.0,7.0,73,0.00,,CLR,0.00,543.00,VWS V14.01,2013-01-07 18:18:00,
2013-01-07 12:20:00,34.6,26.5,29.35,SSW,202,5.0,7.0,72,0.00,,CLR,0.00,550.00,VWS V14.01,2013-01-07 18:20:00,
2013-01-07 12:21:00,34.7,26.6,29.35,WSW,248,3.0,6.0,72,0.00,,CLR,0.00,547.00,VWS V14.01,2013-01-07 18:21:00,
2013-01-07 12:25:00,35.0,26.6,29.35,SE,128,6.0,7.0,71,0.00,,CLR,0.00,490.00,VWS V14.01,2013-01-07 18:25:00,
2013-01-07 12:26:00,35.0,26.6,29.35,WSW,244,2.0,7.0,71,0.00,,CLR,0.00,541.00,VWS V14.01,2013-01-07 18:26:00,
2013-01-07 12:27:00,34.9,26.5,29.35,NW,311,2.0,6.0,71,0.00,,CLR,0.00,545.00,VWS V14.01,2013-01-07 18:27:00,
2013-01-07 12:29:00,34.9,26.5,29.35,SSE,148,1.0,4.0,71,0.00,,CLR,0.00,541.00,VWS V14.01,2013-01-07 18:29:00,
2013-01-07 12:31:00,35.0,26.9,29.34,WSW,245,3.0,4.0,72,0.00,,CLR,0.00,547.00,VWS V14.01,2013-01-07 18:31:00,
2013-01-07 12:32:00,35.0,26.6,29.34,SW,227,4.0,4.0,71,0.00,,CLR,0.00,503.00,VWS V14.01,2013-01-07 18:32:00,
2013-01-07 12:37:00,34.9,26.5,29.34,South,188,2.0,5.0,71,0.00,,CLR,0.00,538.00,VWS V14.01,2013-01-07 18:37:00,
2013-01-07 12:38:00,34.9,26.5,29.34,South,180,3.0,9.0,71,0.00,,CLR,0.00,538.00,VWS V14.01,2013-01-07 18:38:00,
2013-01-07 12:42:00,35.2,27.1,29.33,SSE,157,4.0,5.0,72,0.00,,CLR,0.00,533.00,VWS V14.01,2013-01-07 18:42:00,
2013-01-07 12:43:00,35.3,27.2,29.33,SSE,165,5.0,7.0,72,0.00,,CLR,0.00,527.00,VWS V14.01,2013-01-07 18:43:00,
2013-01-07 12:44:00,35.4,27.0,29.33,SW,215,1.0,8.0,71,0.00,,CLR,0.00,529.00,VWS V14.01,2013-01-07 18:44:00,
2013-01-07 12:45:00,35.5,27.0,29.33,ESE,114,0.0,4.0,71,0.00,,CLR,0.00,531.00,VWS V14.01,2013-01-07 18:45:00,
2013-01-07 12:49:00,35.6,27.1,29.33,SW,231,2.0,16.0,71,0.00,,CLR,0.00,529.00,VWS V14.01,2013-01-07 18:49:00,
2013-01-07 12:50:00,35.5,27.0,29.33,South,180,5.0,6.0,71,0.00,,CLR,0.00,529.00,VWS V14.01,2013-01-07 18:50:00,
2013-01-07 12:51:00,35.5,27.0,29.33,SE,124,6.0,6.0,71,0.00,,CLR,0.00,529.00,VWS V14.01,2013-01-07 18:51:00,
2013-01-07 12:55:00,35.5,27.0,29.32,South,175,1.0,4.0,71,0.00,,CLR,0.00,519.00,VWS V14.01,2013-01-07 18:55:00,
2013-01-07 12:57:00,35.5,27.0,29.32,South,186,3.0,8.0,71,0.00,,CLR,0.00,515.00,VWS V14.01,2013-01-07 18:57:00,
2013-01-07 12:59:00,35.5,27.0,29.32,SE,134,0.0,7.0,71,0.00,,CLR,0.00,519.00,VWS V14.01,2013-01-07 18:59:00,
2013-01-07 13:02:00,35.6,27.5,29.32,South,169,0.0,8.0,72,0.00,,CLR,0.00,519.00,VWS V14.01,2013-01-07 19:02:00,
2013-01-07 13:04:00,35.6,27.1,29.32,SE,126,0.0,8.0,71,0.00,,CLR,0.00,497.00,VWS V14.01,2013-01-07 19:04:00,
2013-01-07 13:06:00,35.6,27.5,29.32,SE,138,7.0,8.0,72,0.00,,CLR,0.00,420.00,VWS V14.01,2013-01-07 19:06:00,
2013-01-07 13:07:00,35.6,27.5,29.32,West,271,4.0,7.0,72,0.00,,CLR,0.00,420.00,VWS V14.01,2013-01-07 19:07:00,
2013-01-07 13:10:00,35.4,27.0,29.32,South,190,3.0,8.0,71,0.00,,CLR,0.00,91.00,VWS V14.01,2013-01-07 19:10:00,
2013-01-07 13:11:00,35.5,27.4,29.32,SSW,211,4.0,9.0,72,0.00,,CLR,0.00,91.00,VWS V14.01,2013-01-07 19:11:00,
2013-01-07 13:12:00,35.5,27.4,29.31,ESE,110,1.0,4.0,72,0.00,,CLR,0.00,274.00,VWS V14.01,2013-01-07 19:12:00,
2013-01-07 13:15:00,35.6,27.5,29.32,SE,130,5.0,8.0,72,0.00,,CLR,0.00,494.00,VWS V14.01,2013-01-07 19:15:00,
2013-01-07 13:17:00,35.8,27.7,29.31,SSW,212,3.0,5.0,72,0.00,,CLR,0.00,492.00,VWS V14.01,2013-01-07 19:17:00,
2013-01-07 13:18:00,35.8,27.7,29.31,SSE,159,2.0,4.0,72,0.00,,CLR,0.00,483.00,VWS V14.01,2013-01-07 19:18:00,
2013-01-07 13:20:00,35.9,27.8,29.31,SE,129,1.0,10.0,72,0.00,,CLR,0.00,476.00,VWS V14.01,2013-01-07 19:20:00,
2013-01-07 13:24:00,36.2,27.7,29.31,NNW,329,2.0,6.0,71,0.00,,CLR,0.00,464.00,VWS V14.01,2013-01-07 19:24:00,
2013-01-07 13:26:00,36.2,27.7,29.31,SW,218,0.0,7.0,71,0.00,,CLR,0.00,459.00,VWS V14.01,2013-01-07 19:26:00,
2013-01-07 13:27:00,36.3,27.8,29.31,ESE,123,2.0,5.0,71,0.00,,CLR,0.00,459.00,VWS V14.01,2013-01-07 19:27:00,
2013-01-07 13:29:00,36.4,27.9,29.31,SW,219,6.0,6.0,71,0.00,,CLR,0.00,461.00,VWS V14.01,2013-01-07 19:29:00,
2013-01-07 13:31:00,36.4,27.6,29.30,WNW,295,0.0,5.0,70,0.00,,CLR,0.00,459.00,VWS V14.01,2013-01-07 19:31:00,
2013-01-07 13:32:00,36.5,28.0,29.31,ESE,113,5.0,8.0,71,0.00,,CLR,0.00,461.00,VWS V14.01,2013-01-07 19:32:00,
2013-01-07 13:35:00,36.5,28.0,29.30,SE,144,0.0,6.0,71,0.00,,CLR,0.00,466.00,VWS V14.01,2013-01-07 19:35:00,
2013-01-07 13:38:00,36.7,28.2,29.30,SSE,163,1.0,5.0,71,0.00,,CLR,0.00,422.00,VWS V14.01,2013-01-07 19:38:00,
2013-01-07 13:39:00,36.8,28.0,29.31,SSW,203,3.0,6.0,70,0.00,,CLR,0.00,434.00,VWS V14.01,2013-01-07 19:39:00,
2013-01-07 13:41:00,36.8,28.0,29.30,SSW,193,0.0,4.0,70,0.00,,CLR,0.00,462.00,VWS V14.01,2013-01-07 19:41:00,
2013-01-07 13:43:00,37.0,28.1,29.31,SSE,163,0.0,5.0,70,0.00,,CLR,0.00,452.00,VWS V14.01,2013-01-07 19:43:00,
2013-01-07 13:46:00,36.9,27.7,29.31,East,82,5.0,6.0,69,0.00,,CLR,0.00,408.00,VWS V14.01,2013-01-07 19:46:00,
2013-01-07 13:47:00,36.8,28.0,29.31,ESE,122,2.0,7.0,70,0.00,,CLR,0.00,399.00,VWS V14.01,2013-01-07 19:47:00,
2013-01-07 13:48:00,36.8,28.0,29.31,SE,138,6.0,6.0,70,0.00,,CLR,0.00,413.00,VWS V14.01,2013-01-07 19:48:00,
2013-01-07 13:51:00,36.8,27.6,29.30,SW,230,5.0,5.0,69,0.00,,CLR,0.00,397.00,VWS V14.01,2013-01-07 19:51:00,
2013-01-07 13:53:00,36.7,27.5,29.30,East,95,2.0,7.0,69,0.00,,CLR,0.00,415.00,VWS V14.01,2013-01-07 19:53:00,
2013-01-07 13:54:00,36.8,27.6,29.30,SSW,211,6.0,6.0,69,0.00,,CLR,0.00,417.00,VWS V14.01,2013-01-07 19:54:00,
2013-01-07 13:59:00,36.7,27.5,29.30,SSW,200,6.0,9.0,69,0.00,,CLR,0.00,385.00,VWS V14.01,2013-01-07 19:59:00,
2013-01-07 14:00:00,36.7,27.5,29.30,East,88,5.0,8.0,69,0.00,,CLR,0.00,388.00,VWS V14.01,2013-01-07 20:00:00,
2013-01-07 14:01:00,36.7,27.5,29.30,South,180,2.0,5.0,69,0.00,,CLR,0.00,373.00,VWS V14.01,2013-01-07 20:01:00,
2013-01-07 14:02:00,36.7,27.9,29.30,South,180,0.0,2.0,70,0.00,,CLR,0.00,359.00,VWS V14.01,2013-01-07 20:02:00,
2013-01-07 14:05:00,36.8,28.0,29.29,SE,131,1.0,5.0,70,0.00,,CLR,0.00,269.00,VWS V14.01,2013-01-07 20:05:00,
2013-01-07 14:06:00,36.9,28.0,29.29,SE,146,1.0,6.0,70,0.00,,CLR,0.00,278.00,VWS V14.01,2013-01-07 20:06:00,
2013-01-07 14:07:00,36.9,28.0,29.29,SSE,147,1.0,5.0,70,0.00,,CLR,0.00,271.00,VWS V14.01,2013-01-07 20:07:00,
2013-01-07 14:10:00,37.2,28.3,29.29,SSW,204,3.0,7.0,70,0.00,,CLR,0.00,332.00,VWS V14.01,2013-01-07 20:10:00,
2013-01-07 14:12:00,37.2,28.3,29.30,SE,128,6.0,7.0,70,0.00,,CLR,0.00,271.00,VWS V14.01,2013-01-07 20:12:00,
2013-01-07 14:14:00,37.3,28.1,29.29,ESE,123,2.0,4.0,69,0.00,,CLR,0.00,274.00,VWS V14.01,2013-01-07 20:14:00,
2013-01-07 14:16:00,37.3,28.1,29.29,SSE,157,2.0,6.0,69,0.00,,CLR,0.00,338.00,VWS V14.01,2013-01-07 20:16:00,
2013-01-07 14:17:00,37.3,28.1,29.29,ENE,73,4.0,5.0,69,0.00,,CLR,0.00,353.00,VWS V14.01,2013-01-07 20:17:00,
2013-01-07 14:21:00,37.3,28.1,29.29,East,87,0.0,7.0,69,0.00,,CLR,0.00,320.00,VWS V14.01,2013-01-07 20:21:00,
2013-01-07 14:23:00,37.3,28.1,29.28,South,173,0.0,7.0,69,0.00,,CLR,0.00,239.00,VWS V14.01,2013-01-07 20:23:00,
2013-01-07 14:25:00,37.3,28.1,29.29,WSW,240,4.0,4.0,69,0.00,,CLR,0.00,204.00,VWS V14.01,2013-01-07 20:25:00,
2013-01-07 14:26:00,37.3,28.1,29.29,SW,234,2.0,7.0,69,0.00,,CLR,0.00,204.00,VWS V14.01,2013-01-07 20:26:00,
2013-01-07 14:31:00,37.2,28.0,29.28,ESE,107,0.0,2.0,69,0.00,,CLR,0.00,176.00,VWS V14.01,2013-01-07 20:31:00,
2013-01-07 14:33:00,37.3,28.1,29.29,SSW,194,4.0,4.0,69,0.00,,CLR,0.00,192.00,VWS V14.01,2013-01-07 20:33:00,
2013-01-07 14:34:00,37.3,28.1,29.28,East,91,4.0,4.0,69,0.00,,CLR,0.00,142.00,VWS V14.01,2013-01-07 20:34:00,
2013-01-07 14:35:00,37.2,28.0,29.28,South,186,2.0,7.0,69,0.00,,CLR,0.00,148.00,VWS V14.01,2013-01-07 20:35:00,
2013-01-07 14:38:00,37.0,27.8,29.28,SW,229,6.0,6.0,69,0.00,,CLR,0.00,153.00,VWS V14.01,2013-01-07 20:38:00,
2013-01-07 14:40:00,36.9,27.7,29.28,SW,221,1.0,4.0,69,0.00,,CLR,0.00,104.00,VWS V14.01,2013-01-07 20:40:00,
2013-01-07 14:44:00,36.9,28.0,29.29,SE,145,1.0,6.0,70,0.00,,CLR,0.00,193.00,VWS V14.01,2013-01-07 20:44:00,
2013-01-07 14:45:00,37.0,28.1,29.29,ESE,107,2.0,2.0,70,0.00,,CLR,0.00,197.00,VWS V14.01,2013-01-07 20:45:00,
2013-01-07 14:46:00,37.0,28.1,29.29,SW,219,6.0,6.0,70,0.00,,CLR,0.00,214.00,VWS V14.01,2013-01-07 20:46:00,
2013-01-07 14:51:00,37.1,28.2,29.29,SSW,213,1.0,1.0,70,0.00,,CLR,0.00,178.00,VWS V14.01,2013-01-07 20:51:00,
2013-01-07 14:52:00,37.1,28.2,29.29,SW,235,1.0,5.0,70,0.00,,CLR,0.00,193.00,VWS V14.01,2013-01-07 20:52:00,
2013-01-07 14:53:00,37.1,27.9,29.29,ESE,103,1.0,7.0,69,0.00,,CLR,0.00,160.00,VWS V14.01,2013-01-07 20:53:00,
2013-01-07 14:57:00,37.1,27.9,29.29,SSW,195,2.0,8.0,69,0.00,,CLR,0.00,105.00,VWS V14.01,2013-01-07 20:57:00,
2013-01-07 14:59:00,37.1,27.9,29.29,SSE,160,1.0,7.0,69,0.00,,CLR,0.00,116.00,VWS V14.01,2013-01-07 20:59:00,
2013-01-07 15:00:00,37.0,27.8,29.29,SE,134,4.0,7.0,69,0.00,,CLR,0.00,121.00,VWS V14.01,2013-01-07 21:00:00,
2013-01-07 15:02:00,37.0,27.8,29.28,ESE,118,1.0,2.0,69,0.00,,CLR,0.00,151.00,VWS V14.01,2013-01-07 21:02:00,
2013-01-07 15:03:00,37.0,27.8,29.29,SE,130,4.0,8.0,69,0.00,,CLR,0.00,149.00,VWS V14.01,2013-01-07 21:03:00,
2013-01-07 15:05:00,37.0,27.4,29.28,SE,124,5.0,6.0,68,0.00,,CLR,0.00,139.00,VWS V14.01,2013-01-07 21:05:00,
2013-01-07 15:08:00,37.1,27.9,29.29,WSW,242,3.0,4.0,69,0.00,,CLR,0.00,137.00,VWS V14.01,2013-01-07 21:08:00,
2013-01-07 15:10:00,37.1,27.9,29.28,SSW,192,1.0,2.0,69,0.00,,CLR,0.00,155.00,VWS V14.01,2013-01-07 21:10:00,
2013-01-07 15:12:00,37.1,27.9,29.29,East,83,0.0,6.0,69,0.00,,CLR,0.00,105.00,VWS V14.01,2013-01-07 21:12:00,
2013-01-07 15:15:00,37.0,27.8,29.29,SSW,202,3.0,6.0,69,0.00,,CLR,0.00,130.00,VWS V14.01,2013-01-07 21:15:00,
2013-01-07 15:16:00,37.0,27.8,29.28,SSW,202,0.0,3.0,69,0.00,,CLR,0.00,167.00,VWS V14.01,2013-01-07 21:16:00,
2013-01-07 15:21:00,37.2,28.0,29.28,ESE,121,2.0,2.0,69,0.00,,CLR,0.00,188.00,VWS V14.01,2013-01-07 21:21:00,
2013-01-07 15:23:00,37.3,28.1,29.28,South,183,4.0,9.0,69,0.00,,CLR,0.00,146.00,VWS V14.01,2013-01-07 21:23:00,
2013-01-07 15:27:00,37.4,28.2,29.28,SSE,168,0.0,5.0,69,0.00,,CLR,0.00,98.00,VWS V14.01,2013-01-07 21:27:00,
2013-01-07 15:28:00,37.4,28.2,29.28,South,188,1.0,2.0,69,0.00,,CLR,0.00,98.00,VWS V14.01,2013-01-07 21:28:00,
2013-01-07 15:29:00,37.3,28.1,29.28,WSW,237,0.0,5.0,69,0.00,,CLR,0.00,105.00,VWS V14.01,2013-01-07 21:29:00,
2013-01-07 15:32:00,37.2,27.6,29.28,ESE,123,9.0,9.0,68,0.00,,CLR,0.00,104.00,VWS V14.01,2013-01-07 21:32:00,
2013-01-07 15:33:00,37.1,27.5,29.28,ESE,107,1.0,9.0,68,0.00,,CLR,0.00,111.00,VWS V14.01,2013-01-07 21:33:00,
2013-01-07 15:35:00,37.0,27.4,29.28,ESE,107,2.0,4.0,68,0.00,,CLR,0.00,111.00,VWS V14.01,2013-01-07 21:35:00,
2013-01-07 15:36:00,37.0,27.4,29.28,SSE,147,6.0,6.0,68,0.00,,CLR,0.00,104.00,VWS V14.01,2013-01-07 21:36:00,
2013-01-07 15:39:00,36.9,27.3,29.28,NE,42,1.0,5.0,68,0.00,,CLR,0.00,105.00,VWS V14.01,2013-01-07 21:39:00,
2013-01-07 15:41:00,36.8,27.2,29.27,East,92,1.0,4.0,68,0.00,,CLR,0.00,77.00,VWS V14.01,2013-01-07 21:41:00,
2013-01-07 15:42:00,36.8,27.2,29.28,ESE,114,0.0,2.0,68,0.00,,CLR,0.00,70.00,VWS V14.01,2013-01-07 21:42:00,
2013-01-07 15:43:00,36.8,27.2,29.27,East,87,0.0,4.0,68,0.00,,CLR,0.00,88.00,VWS V14.01,2013-01-07 21:43:00,
2013-01-07 15:45:00,36.8,27.2,29.27,SE,144,4.0,9.0,68,0.00,,CLR,0.00,90.00,VWS V14.01,2013-01-07 21:45:00,
2013-01-07 15:48:00,36.7,27.1,29.28,SE,132,4.0,5.0,68,0.00,,CLR,0.00,113.00,VWS V14.01,2013-01-07 21:48:00,
2013-01-07 15:50:00,36.6,27.0,29.27,SE,138,4.0,6.0,68,0.00,,CLR,0.00,116.00,VWS V14.01,2013-01-07 21:50:00,
2013-01-07 15:53:00,36.7,27.1,29.27,SE,132,2.0,6.0,68,0.00,,CLR,0.00,86.00,VWS V14.01,2013-01-07 21:53:00,
2013-01-07 15:54:00,36.6,27.0,29.27,SE,126,0.0,7.0,68,0.00,,CLR,0.00,79.00,VWS V14.01,2013-01-07 21:54:00,
2013-01-07 15:56:00,36.6,27.0,29.27,SW,215,0.0,2.0,68,0.00,,CLR,0.00,107.00,VWS V14.01,2013-01-07 21:56:00,
2013-01-07 15:58:00,36.6,27.0,29.27,ESE,119,4.0,6.0,68,0.00,,CLR,0.00,111.00,VWS V14.01,2013-01-07 21:58:00,
2013-01-07 16:02:00,36.6,27.0,29.27,SSE,165,4.0,5.0,68,0.00,,CLR,0.00,79.00,VWS V14.01,2013-01-07 22:02:00,
2013-01-07 16:03:00,36.6,27.0,29.27,SE,128,1.0,5.0,68,0.00,,CLR,0.00,76.00,VWS V14.01,2013-01-07 22:03:00,
2013-01-07 16:08:00,36.4,27.2,29.27,South,180,0.0,2.0,69,0.00,,CLR,0.00,47.00,VWS V14.01,2013-01-07 22:08:00,
2013-01-07 16:09:00,36.4,27.2,29.27,West,260,1.0,9.0,69,0.00,,CLR,0.00,47.00,VWS V14.01,2013-01-07 22:09:00,
2013-01-07 16:13:00,36.2,27.0,29.26,South,184,0.0,2.0,69,0.00,,CLR,0.00,49.00,VWS V14.01,2013-01-07 22:13:00,
2013-01-07 16:14:00,36.1,26.9,29.26,ESE,113,0.0,2.0,69,0.00,,CLR,0.00,37.00,VWS V14.01,2013-01-07 22:14:00,
2013-01-07 16:18:00,35.9,26.7,29.27,SSW,211,4.0,4.0,69,0.00,,CLR,0.00,21.00,VWS V14.01,2013-01-07 22:18:00,
2013-01-07 16:20:00,35.7,26.9,29.26,ESE,112,1.0,2.0,70,0.00,,CLR,0.00,19.00,VWS V14.01,2013-01-07 22:20:00,
2013-01-07 16:23:00,35.5,26.7,29.26,WSW,244,2.0,7.0,70,0.00,,CLR,0.00,18.00,VWS V14.01,2013-01-07 22:23:00,
2013-01-07 16:24:00,35.5,26.7,29.26,ESE,106,2.0,6.0,70,0.00,,CLR,0.00,16.00,VWS V14.01,2013-01-07 22:24:00,
2013-01-07 16:25:00,35.4,26.6,29.26,SE,130,2.0,4.0,70,0.00,,CLR,0.00,16.00,VWS V14.01,2013-01-07 22:25:00,
2013-01-07 16:26:00,35.3,26.5,29.26,SE,126,2.0,4.0,70,0.00,,CLR,0.00,14.00,VWS V14.01,2013-01-07 22:26:00,
2013-01-07 16:30:00,35.1,26.0,29.25,ESE,117,4.0,10.0,69,0.00,,CLR,0.00,12.00,VWS V14.01,2013-01-07 22:30:00,
2013-01-07 16:32:00,35.0,25.9,29.26,SSE,161,0.0,5.0,69,0.00,,CLR,0.00,12.00,VWS V14.01,2013-01-07 22:32:00,
2013-01-07 16:36:00,34.8,26.0,29.26,ESE,111,1.0,4.0,70,0.00,,CLR,0.00,7.00,VWS V14.01,2013-01-07 22:36:00,
2013-01-07 16:38:00,34.7,25.9,29.26,SSE,151,0.0,5.0,70,0.00,,CLR,0.00,7.00,VWS V14.01,2013-01-07 22:38:00,
2013-01-07 16:40:00,34.5,25.7,29.26,East,99,5.0,10.0,70,0.00,,CLR,0.00,5.00,VWS V14.01,2013-01-07 22:40:00,
2013-01-07 16:41:00,34.5,25.7,29.26,WSW,244,0.0,6.0,70,0.00,,CLR,0.00,0.00,VWS V14.01,2013-01-07 22:41:00,
2013-01-07 16:45:00,34.4,25.6,29.26,SE,136,1.0,4.0,70,0.00,,CLR,0.00,0.00,VWS V14.01,2013-01-07 22:45:00,
2013-01-07 16:46:00,34.4,25.6,29.26,South,174,0.0,2.0,70,0.00,,CLR,0.00,0.00,VWS V14.01,2013-01-07 22:46:00,
2013-01-07 16:50:00,34.4,25.6,29.26,SW,217,4.0,5.0,70,0.00,,CLR,0.00,0.00,VWS V14.01,2013-01-07 22:50:00,
2013-01-07 16:51:00,34.4,25.6,29.26,SSE,160,0.0,4.0,70,0.00,,CLR,0.00,0.00,VWS V14.01,2013-01-07 22:51:00,
2013-01-07 16:52:00,34.4,25.6,29.26,ESE,122,5.0,5.0,70,0.00,,CLR,0.00,0.00,VWS V14.01,2013-01-07 22:52:00,
2013-01-07 16:56:00,34.2,25.8,29.26,SSW,197,0.0,4.0,71,0.00,,CLR,0.00,0.00,VWS V14.01,2013-01-07 22:56:00,
2013-01-07 16:58:00,34.1,25.7,29.26,South,173,0.0,1.0,71,0.00,,CLR,0.00,0.00,VWS V14.01,2013-01-07 22:58:00,
2013-01-07 16:59:00,34.1,25.7,29.26,South,173,1.0,1.0,71,0.00,,CLR,0.00,0.00,VWS V14.01,2013-01-07 22:59:00,
2013-01-07 17:01:00,34.0,25.6,29.27,SSE,150,2.0,2.0,71,0.00,,CLR,0.00,0.00,VWS V14.01,2013-01-07 23:01:00,
2013-01-07 17:04:00,33.9,25.5,29.26,ESE,123,0.0,1.0,71,0.00,,CLR,0.00,0.00,VWS V14.01,2013-01-07 23:04:00,
2013-01-07 17:05:00,33.9,25.5,29.26,SE,125,0.0,2.0,71,0.00,,CLR,0.00,0.00,VWS V14.01,2013-01-07 23:05:00,
2013-01-07 17:09:00,33.7,25.3,29.26,SSE,163,1.0,3.0,71,0.00,,CLR,0.00,0.00,VWS V14.01,2013-01-07 23:09:00,
2013-01-07 17:11:00,33.7,25.3,29.27,ESE,123,0.0,2.0,71,0.00,,CLR,0.00,0.00,VWS V14.01,2013-01-07 23:11:00,
2013-01-07 17:12:00,33.6,25.2,29.27,ENE,74,0.0,3.0,71,0.00,,CLR,0.00,0.00,VWS V14.01,2013-01-07 23:12:00,
2013-01-07 17:14:00,33.6,25.5,29.26,SE,128,5.0,6.0,72,0.00,,CLR,0.00,0.00,VWS V14.01,2013-01-07 23:14:00,
2013-01-07 17:16:00,33.5,25.5,29.26,SSE,154,1.0,1.0,72,0.00,,CLR,0.00,0.00,VWS V14.01,2013-01-07 23:16:00,
2013-01-07 17:17:00,33.5,25.5,29.26,SE,146,0.0,2.0,72,0.00,,CLR,0.00,0.00,VWS V14.01,2013-01-07 23:17:00,
2013-01-07 17:22:00,33.3,25.3,29.26,SSE,166,2.0,2.0,72,0.00,,CLR,0.00,0.00,VWS V14.01,2013-01-07 23:22:00,
2013-01-07 17:23:00,33.3,25.3,29.26,SSE,168,0.0,5.0,72,0.00,,CLR,0.00,0.00,VWS V14.01,2013-01-07 23:23:00,
2013-01-07 17:25:00,33.2,25.2,29.26,SSW,200,0.0,2.0,72,0.00,,CLR,0.00,0.00,VWS V14.01,2013-01-07 23:25:00,
2013-01-07 17:28:00,33.1,25.4,29.26,ESE,121,2.0,2.0,73,0.00,,CLR,0.00,0.00,VWS V14.01,2013-01-07 23:28:00,
2013-01-07 17:31:00,33.0,25.3,29.26,SE,129,0.0,0.0,73,0.00,,CLR,0.00,0.00,VWS V14.01,2013-01-07 23:31:00,
2013-01-07 17:32:00,33.0,25.3,29.26,SE,135,1.0,4.0,73,0.00,,CLR,0.00,0.00,VWS V14.01,2013-01-07 23:32:00,
2013-01-07 17:36:00,32.9,25.2,29.25,ESE,115,2.0,5.0,73,0.00,,CLR,0.00,0.00,VWS V14.01,2013-01-07 23:36:00,
2013-01-07 17:37:00,32.9,25.2,29.25,South,184,5.0,7.0,73,0.00,,CLR,0.00,0.00,VWS V14.01,2013-01-07 23:37:00,
2013-01-07 17:42:00,32.9,25.5,29.25,South,190,1.0,2.0,74,0.00,,CLR,0.00,0.00,VWS V14.01,2013-01-07 23:42:00,
2013-01-07 17:47:00,32.9,25.2,29.25,East,87,2.0,6.0,73,0.00,,CLR,0.00,0.00,VWS V14.01,2013-01-07 23:47:00,
2013-01-07 17:49:00,32.9,25.2,29.25,SW,224,3.0,4.0,73,0.00,,CLR,0.00,0.00,VWS V14.01,2013-01-07 23:49:00,
2013-01-07 17:51:00,32.9,25.2,29.25,SE,144,0.0,8.0,73,0.00,,CLR,0.00,0.00,VWS V14.01,2013-01-07 23:51:00,
2013-01-07 17:55:00,32.9,25.2,29.25,SE,141,0.0,7.0,73,0.00,,CLR,0.00,0.00,VWS V14.01,2013-01-07 23:55:00,
2013-01-07 17:56:00,32.9,25.2,29.25,SE,141,0.0,2.0,73,0.00,,CLR,0.00,0.00,VWS V14.01,2013-01-07 23:56:00,
2013-01-07 18:00:00,32.9,25.2,29.25,South,186,0.0,2.0,73,0.00,,CLR,0.00,0.00,VWS V14.01,2013-01-08 00:00:00,
2013-01-07 18:01:00,32.9,25.2,29.25,SSW,193,4.0,5.0,73,0.00,,CLR,0.00,0.00,VWS V14.01,2013-01-08 00:01:00,
2013-01-07 18:02:00,32.9,25.2,29.25,East,88,2.0,4.0,73,0.00,,CLR,0.00,0.00,VWS V14.01,2013-01-08 00:02:00,
2013-01-07 18:05:00,32.8,24.8,29.24,ESE,122,0.0,4.0,72,0.00,,CLR,0.00,0.00,VWS V14.01,2013-01-08 00:05:00,
2013-01-07 18:07:00,32.8,24.8,29.24,SSW,197,3.0,5.0,72,0.00,,CLR,0.00,0.00,VWS V14.01,2013-01-08 00:07:00,
2013-01-07 18:08:00,32.8,24.8,29.24,SSE,150,4.0,4.0,72,0.00,,CLR,0.00,0.00,VWS V14.01,2013-01-08 00:08:00,
2013-01-07 18:11:00,32.8,24.8,29.25,SE,130,1.0,2.0,72,0.00,,CLR,0.00,0.00,VWS V14.01,2013-01-08 00:11:00,
2013-01-07 18:13:00,32.9,24.9,29.25,SSE,159,1.0,4.0,72,0.00,,CLR,0.00,0.00,VWS V14.01,2013-01-08 00:13:00,
2013-01-07 18:14:00,32.9,24.9,29.25,South,171,1.0,4.0,72,0.00,,CLR,0.00,0.00,VWS V14.01,2013-01-08 00:14:00,
2013-01-07 18:16:00,32.8,24.8,29.25,ESE,105,1.0,5.0,72,0.00,,CLR,0.00,0.00,VWS V14.01,2013-01-08 00:16:00,
2013-01-07 18:20:00,32.9,24.9,29.25,South,175,0.0,4.0,72,0.00,,CLR,0.00,0.00,VWS V14.01,2013-01-08 00:20:00,
2013-01-07 18:22:00,32.8,24.8,29.25,South,169,1.0,7.0,72,0.00,,CLR,0.00,0.00,VWS V14.01,2013-01-08 00:22:00,
2013-01-07 18:26:00,32.8,24.8,29.25,SW,222,1.0,6.0,72,0.00,,CLR,0.00,0.00,VWS V14.01,2013-01-08 00:26:00,
2013-01-07 18:27:00,32.8,24.8,29.25,East,99,0.0,2.0,72,0.00,,CLR,0.00,0.00,VWS V14.01,2013-01-08 00:27:00,
2013-01-07 18:28:00,32.8,24.8,29.25,SSE,159,0.0,2.0,72,0.00,,CLR,0.00,0.00,VWS V14.01,2013-01-08 00:28:00,
2013-01-07 18:33:00,32.7,24.7,29.25,ESE,102,1.0,4.0,72,0.00,,CLR,0.00,0.00,VWS V14.01,2013-01-08 00:33:00,
2013-01-07 18:34:00,32.6,24.6,29.25,ESE,102,0.0,1.0,72,0.00,,CLR,0.00,0.00,VWS V14.01,2013-01-08 00:34:00,
2013-01-07 18:35:00,32.6,24.6,29.25,North,360,0.0,5.0,72,0.00,,CLR,0.00,0.00,VWS V14.01,2013-01-08 00:35:00,
2013-01-07 18:39:00,32.6,24.6,29.25,ESE,109,0.0,1.0,72,0.00,,CLR,0.00,0.00,VWS V14.01,2013-01-08 00:39:00,
2013-01-07 18:40:00,32.5,24.5,29.25,SE,144,0.0,2.0,72,0.00,,CLR,0.00,0.00,VWS V14.01,2013-01-08 00:40:00,
2013-01-07 18:44:00,32.5,24.8,29.25,SSE,167,0.0,5.0,73,0.00,,CLR,0.00,0.00,VWS V14.01,2013-01-08 00:44:00,
2013-01-07 18:45:00,32.4,24.7,29.25,SSW,213,2.0,2.0,73,0.00,,CLR,0.00,0.00,VWS V14.01,2013-01-08 00:45:00,
2013-01-07 18:51:00,32.3,24.6,29.25,East,94,1.0,4.0,73,0.00,,CLR,0.00,0.00,VWS V14.01,2013-01-08 00:51:00,
2013-01-07 18:53:00,32.3,24.6,29.25,South,172,1.0,6.0,73,0.00,,CLR,0.00,0.00,VWS V14.01,2013-01-08 00:53:00,
2013-01-07 18:55:00,32.2,24.5,29.25,SSE,160,2.0,4.0,73,0.00,,CLR,0.00,0.00,VWS V14.01,2013-01-08 00:55:00,
2013-01-07 18:56:00,32.2,24.5,29.25,SSE,160,1.0,6.0,73,0.00,,CLR,0.00,0.00,VWS V14.01,2013-01-08 00:56:00,
2013-01-07 18:59:00,32.1,24.4,29.25,SSW,207,1.0,2.0,73,0.00,,CLR,0.00,0.00,VWS V14.01,2013-01-08 00:59:00,
2013-01-07 19:01:00,32.0,24.7,29.25,South,190,1.0,1.0,74,0.00,,CLR,0.00,0.00,VWS V14.01,2013-01-08 01:01:00,
2013-01-07 19:04:00,31.9,24.6,29.25,SE,136,2.0,4.0,74,0.00,,CLR,0.00,0.00,VWS V14.01,2013-01-08 01:04:00,
2013-01-07 19:05:00,31.9,24.6,29.25,SSE,165,1.0,4.0,74,0.00,,CLR,0.00,0.00,VWS V14.01,2013-01-08 01:05:00,
2013-01-07 19:06:00,31.9,24.6,29.25,ESE,113,6.0,7.0,74,0.00,,CLR,0.00,0.00,VWS V14.01,2013-01-08 01:06:00,
2013-01-07 19:09:00,31.8,24.5,29.25,South,175,0.0,2.0,74,0.00,,CLR,0.00,0.00,VWS V14.01,2013-01-08 01:09:00,
2013-01-07 19:11:00,31.7,24.4,29.25,SE,125,4.0,4.0,74,0.00,,CLR,0.00,0.00,VWS V14.01,2013-01-08 01:11:00,
2013-01-07 19:14:00,31.7,24.7,29.25,SSE,163,2.0,4.0,75,0.00,,CLR,0.00,0.00,VWS V14.01,2013-01-08 01:14:00,
2013-01-07 19:15:00,31.7,24.7,29.25,SSE,163,0.0,2.0,75,0.00,,CLR,0.00,0.00,VWS V14.01,2013-01-08 01:15:00,
2013-01-07 19:19:00,31.6,24.6,29.25,SE,144,2.0,2.0,75,0.00,,CLR,0.00,0.00,VWS V14.01,2013-01-08 01:19:00,
2013-01-07 19:20:00,31.6,24.6,29.25,SSE,148,0.0,5.0,75,0.00,,CLR,0.00,0.00,VWS V14.01,2013-01-08 01:20:00,
2013-01-07 19:25:00,31.6,24.6,29.25,East,96,0.0,7.0,75,0.00,,CLR,0.00,0.00,VWS V14.01,2013-01-08 01:25:00,
2013-01-07 19:27:00,31.6,24.6,29.25,SSE,152,0.0,9.0,75,0.00,,CLR,0.00,0.00,VWS V14.01,2013-01-08 01:27:00,
2013-01-07 19:30:00,31.6,24.6,29.24,ESE,110,2.0,9.0,75,0.00,,CLR,0.00,0.00,VWS V14.01,2013-01-08 01:30:00,
2013-01-07 19:31:00,31.6,24.6,29.24,South,177,0.0,2.0,75,0.00,,CLR,0.00,0.00,VWS V14.01,2013-01-08 01:31:00,
2013-01-07 19:34:00,31.6,24.6,29.24,SSW,193,0.0,4.0,75,0.00,,CLR,0.00,0.00,VWS V14.01,2013-01-08 01:34:00,
2013-01-07 19:36:00,31.5,24.5,29.24,SSE,150,0.0,2.0,75,0.00,,CLR,0.00,0.00,VWS V14.01,2013-01-08 01:36:00,
2013-01-07 19:39:00,31.5,24.5,29.25,SSW,209,0.0,3.0,75,0.00,,CLR,0.00,0.00,VWS V14.01,2013-01-08 01:39:00,
2013-01-07 19:40:00,31.5,24.5,29.25,ESE,122,0.0,4.0,75,0.00,,CLR,0.00,0.00,VWS V14.01,2013-01-08 01:40:00,
2013-01-07 19:43:00,31.5,24.5,29.25,ESE,121,5.0,6.0,75,0.00,,CLR,0.00,0.00,VWS V14.01,2013-01-08 01:43:00,
2013-01-07 19:45:00,31.5,24.5,29.24,SSE,157,0.0,0.0,75,0.00,,CLR,0.00,0.00,VWS V14.01,2013-01-08 01:45:00,
2013-01-07 19:48:00,31.4,24.4,29.25,ESE,111,1.0,1.0,75,0.00,,CLR,0.00,0.00,VWS V14.01,2013-01-08 01:48:00,
2013-01-07 19:52:00,31.4,24.4,29.25,South,186,0.0,2.0,75,0.00,,CLR,0.00,0.00,VWS V14.01,2013-01-08 01:52:00,
2013-01-07 19:54:00,31.4,24.4,29.25,ESE,111,0.0,1.0,75,0.00,,CLR,0.00,0.00,VWS V14.01,2013-01-08 01:54:00,
2013-01-07 19:56:00,31.3,24.3,29.25,ESE,109,2.0,5.0,75,0.00,,CLR,0.00,0.00,VWS V14.01,2013-01-08 01:56:00,
2013-01-07 19:58:00,31.3,24.3,29.25,SSE,160,1.0,2.0,75,0.00,,CLR,0.00,0.00,VWS V14.01,2013-01-08 01:58:00,
2013-01-07 20:00:00,31.3,24.3,29.24,ESE,113,0.0,1.0,75,0.00,,CLR,0.00,0.00,VWS V14.01,2013-01-08 02:00:00,
2013-01-07 20:02:00,31.3,24.3,29.24,SE,144,2.0,4.0,75,0.00,,CLR,0.00,0.00,VWS V14.01,2013-01-08 02:02:00,
2013-01-07 20:04:00,31.3,24.3,29.24,SE,139,0.0,5.0,75,0.00,,CLR,0.00,0.00,VWS V14.01,2013-01-08 02:04:00,
2013-01-07 20:06:00,31.2,24.2,29.25,South,176,0.0,2.0,75,0.00,,CLR,0.00,0.00,VWS V14.01,2013-01-08 02:06:00,
2013-01-07 20:09:00,31.2,24.2,29.25,ESE,117,0.0,1.0,75,0.00,,CLR,0.00,0.00,VWS V14.01,2013-01-08 02:09:00,
2013-01-07 20:11:00,31.2,24.5,29.25,ESE,117,1.0,2.0,76,0.00,,CLR,0.00,0.00,VWS V14.01,2013-01-08 02:11:00,
2013-01-07 20:14:00,31.1,24.4,29.25,South,173,0.0,4.0,76,0.00,,CLR,0.00,0.00,VWS V14.01,2013-01-08 02:14:00,
2013-01-07 20:17:00,31.0,24.3,29.25,WSW,244,2.0,3.0,76,0.00,,CLR,0.00,0.00,VWS V14.01,2013-01-08 02:17:00,
2013-01-07 20:19:00,31.0,24.3,29.25,WSW,244,0.0,0.0,76,0.00,,CLR,0.00,0.00,VWS V14.01,2013-01-08 02:19:00,
2013-01-07 20:22:00,30.9,24.2,29.25,SSE,150,0.0,1.0,76,0.00,,CLR,0.00,0.00,VWS V14.01,2013-01-08 02:22:00,
2013-01-07 20:24:00,30.9,24.2,29.25,ESE,106,4.0,5.0,76,0.00,,CLR,0.00,0.00,VWS V14.01,2013-01-08 02:24:00,
2013-01-07 20:29:00,30.8,24.5,29.25,SE,140,0.0,2.0,77,0.00,,CLR,0.00,0.00,VWS V14.01,2013-01-08 02:29:00,
2013-01-07 20:30:00,30.8,24.5,29.25,SE,140,0.0,2.0,77,0.00,,CLR,0.00,0.00,VWS V14.01,2013-01-08 02:30:00,
2013-01-07 20:34:00,30.8,24.5,29.25,South,176,0.0,1.0,77,0.00,,CLR,0.00,0.00,VWS V14.01,2013-01-08 02:34:00,
2013-01-07 20:35:00,30.8,24.5,29.25,ESE,123,1.0,4.0,77,0.00,,CLR,0.00,0.00,VWS V14.01,2013-01-08 02:35:00,
2013-01-07 20:38:00,30.8,24.5,29.25,SE,126,0.0,1.0,77,0.00,,CLR,0.00,0.00,VWS V14.01,2013-01-08 02:38:00,
2013-01-07 20:40:00,30.8,24.5,29.24,SSE,151,0.0,1.0,77,0.00,,CLR,0.00,0.00,VWS V14.01,2013-01-08 02:40:00,
2013-01-07 20:43:00,30.8,24.5,29.25,ESE,110,0.0,2.0,77,0.00,,CLR,0.00,0.00,VWS V14.01,2013-01-08 02:43:00,
2013-01-07 20:44:00,30.8,24.5,29.25,SSE,160,4.0,5.0,77,0.00,,CLR,0.00,0.00,VWS V14.01,2013-01-08 02:44:00,
2013-01-07 20:45:00,30.8,24.5,29.25,SE,132,0.0,4.0,77,0.00,,CLR,0.00,0.00,VWS V14.01,2013-01-08 02:45:00,
2013-01-07 20:50:00,30.9,24.5,29.25,SW,228,1.0,3.0,77,0.00,,CLR,0.00,0.00,VWS V14.01,2013-01-08 02:50:00,
2013-01-07 20:52:00,30.9,24.5,29.25,East,101,0.0,4.0,77,0.00,,CLR,0.00,0.00,VWS V14.01,2013-01-08 02:52:00,
2013-01-07 20:54:00,30.9,24.5,29.25,East,82,2.0,2.0,77,0.00,,CLR,0.00,0.00,VWS V14.01,2013-01-08 02:54:00,
2013-01-07 20:55:00,31.0,24.6,29.25,SSE,163,0.0,2.0,77,0.00,,CLR,0.00,0.00,VWS V14.01,2013-01-08 02:55:00,
2013-01-07 20:58:00,31.0,24.6,29.25,South,186,0.0,4.0,77,0.00,,CLR,0.00,0.00,VWS V14.01,2013-01-08 02:58:00,
2013-01-07 20:59:00,31.0,24.6,29.25,South,175,0.0,2.0,77,0.00,,CLR,0.00,0.00,VWS V14.01,2013-01-08 02:59:00,
2013-01-07 21:04:00,31.1,24.8,29.25,South,169,1.0,5.0,77,0.00,,CLR,0.00,0.00,VWS V14.01,2013-01-08 03:04:00,
2013-01-07 21:06:00,31.1,24.8,29.25,SSE,167,0.0,2.0,77,0.00,,CLR,0.00,0.00,VWS V14.01,2013-01-08 03:06:00,
2013-01-07 21:11:00,31.1,24.4,29.25,SW,233,4.0,5.0,76,0.00,,CLR,0.00,0.00,VWS V14.01,2013-01-08 03:11:00,
2013-01-07 21:12:00,31.1,24.4,29.25,South,171,2.0,4.0,76,0.00,,CLR,0.00,0.00,VWS V14.01,2013-01-08 03:12:00,
2013-01-07 21:15:00,31.1,24.4,29.25,SE,143,0.0,4.0,76,0.00,,CLR,0.00,0.00,VWS V14.01,2013-01-08 03:15:00,
2013-01-07 21:17:00,31.2,24.5,29.25,SE,138,0.0,3.0,76,0.00,,CLR,0.00,0.00,VWS V14.01,2013-01-08 03:17:00,
2013-01-07 21:19:00,31.2,24.5,29.25,SW,223,0.0,2.0,76,0.00,,CLR,0.00,0.00,VWS V14.01,2013-01-08 03:19:00,
2013-01-07 21:20:00,31.2,24.5,29.25,South,185,0.0,1.0,76,0.00,,CLR,0.00,0.00,VWS V14.01,2013-01-08 03:20:00,
2013-01-07 21:22:00,31.2,24.5,29.25,SSE,149,0.0,6.0,76,0.00,,CLR,0.00,0.00,VWS V14.01,2013-01-08 03:22:00,
2013-01-07 21:23:00,31.2,24.5,29.25,SSE,167,6.0,7.0,76,0.00,,CLR,0.00,0.00,VWS V14.01,2013-01-08 03:23:00,
2013-01-07 21:24:00,31.2,24.5,29.25,SSE,150,0.0,6.0,76,0.00,,CLR,0.00,0.00,VWS V14.01,2013-01-08 03:24:00,
2013-01-07 21:25:00,31.2,24.5,29.24,South,176,4.0,9.0,76,0.00,,CLR,0.00,0.00,VWS V14.01,2013-01-08 03:25:00,
2013-01-07 21:29:00,31.3,24.6,29.25,SSW,205,2.0,4.0,76,0.00,,CLR,0.00,0.00,VWS V14.01,2013-01-08 03:29:00,
2013-01-07 21:30:00,31.3,24.6,29.25,South,179,0.0,5.0,76,0.00,,CLR,0.00,0.00,VWS V14.01,2013-01-08 03:30:00,
2013-01-07 21:35:00,31.4,24.7,29.25,SE,128,0.0,2.0,76,0.00,,CLR,0.00,0.00,VWS V14.01,2013-01-08 03:35:00,
2013-01-07 21:36:00,31.4,24.7,29.25,SW,232,2.0,6.0,76,0.00,,CLR,0.00,0.00,VWS V14.01,2013-01-08 03:36:00,
2013-01-07 21:40:00,31.4,24.7,29.24,SSE,159,5.0,7.0,76,0.00,,CLR,0.00,0.00,VWS V14.01,2013-01-08 03:40:00,
2013-01-07 21:42:00,31.4,24.7,29.25,ESE,103,2.0,8.0,76,0.00,,CLR,0.00,0.00,VWS V14.01,2013-01-08 03:42:00,
2013-01-07 21:43:00,31.4,24.7,29.24,SSE,163,0.0,2.0,76,0.00,,CLR,0.00,0.00,VWS V14.01,2013-01-08 03:43:00,
2013-01-07 21:44:00,31.4,24.7,29.25,South,190,2.0,5.0,76,0.00,,CLR,0.00,0.00,VWS V14.01,2013-01-08 03:44:00,
2013-01-07 21:49:00,31.4,24.7,29.24,SW,220,0.0,3.0,76,0.00,,CLR,0.00,0.00,VWS V14.01,2013-01-08 03:49:00,
2013-01-07 21:50:00,31.4,24.7,29.24,SSE,160,0.0,2.0,76,0.00,,CLR,0.00,0.00,VWS V14.01,2013-01-08 03:50:00,
2013-01-07 21:51:00,31.4,24.7,29.24,SE,124,0.0,4.0,76,0.00,,CLR,0.00,0.00,VWS V14.01,2013-01-08 03:51:00,
2013-01-07 21:54:00,31.5,24.8,29.24,SSW,209,0.0,3.0,76,0.00,,CLR,0.00,0.00,VWS V14.01,2013-01-08 03:54:00,
2013-01-07 21:56:00,31.5,24.8,29.24,SW,215,1.0,5.0,76,0.00,,CLR,0.00,0.00,VWS V14.01,2013-01-08 03:56:00,
2013-01-07 22:00:00,31.5,24.8,29.24,SSE,154,0.0,1.0,76,0.00,,CLR,0.00,0.00,VWS V14.01,2013-01-08 04:00:00,
2013-01-07 22:01:00,31.5,24.8,29.24,South,185,0.0,7.0,76,0.00,,CLR,0.00,0.00,VWS V14.01,2013-01-08 04:01:00,
2013-01-07 22:03:00,31.5,24.8,29.24,SSW,198,3.0,3.0,76,0.00,,CLR,0.00,0.00,VWS V14.01,2013-01-08 04:03:00,
2013-01-07 22:04:00,31.5,24.5,29.24,South,179,2.0,4.0,75,0.00,,CLR,0.00,0.00,VWS V14.01,2013-01-08 04:04:00,
2013-01-07 22:08:00,31.6,24.9,29.24,North,5,1.0,2.0,76,0.00,,CLR,0.00,0.00,VWS V14.01,2013-01-08 04:08:00,
2013-01-07 22:09:00,31.6,24.9,29.24,SE,127,1.0,2.0,76,0.00,,CLR,0.00,0.00,VWS V14.01,2013-01-08 04:09:00,
2013-01-07 22:10:00,31.6,24.6,29.24,ESE,107,2.0,4.0,75,0.00,,CLR,0.00,0.00,VWS V14.01,2013-01-08 04:10:00,
2013-01-07 22:13:00,31.6,24.6,29.24,WSW,257,1.0,5.0,75,0.00,,CLR,0.00,0.00,VWS V14.01,2013-01-08 04:13:00,
2013-01-07 22:16:00,31.6,24.6,29.24,South,175,0.0,6.0,75,0.00,,CLR,0.00,0.00,VWS V14.01,2013-01-08 04:16:00,
2013-01-07 22:18:00,31.6,24.6,29.24,ENE,74,1.0,3.0,75,0.00,,CLR,0.00,0.00,VWS V14.01,2013-01-08 04:18:00,
2013-01-07 22:19:00,31.6,24.6,29.24,ESE,115,0.0,6.0,75,0.00,,CLR,0.00,0.00,VWS V14.01,2013-01-08 04:19:00,
2013-01-07 22:21:00,31.6,24.6,29.24,SE,128,0.0,4.0,75,0.00,,CLR,0.00,0.00,VWS V14.01,2013-01-08 04:21:00,
2013-01-07 22:25:00,31.6,24.6,29.24,South,185,2.0,3.0,75,0.00,,CLR,0.00,0.00,VWS V14.01,2013-01-08 04:25:00,
2013-01-07 22:26:00,31.6,24.6,29.24,South,182,0.0,3.0,75,0.00,,CLR,0.00,0.00,VWS V14.01,2013-01-08 04:26:00,
2013-01-07 22:27:00,31.6,24.6,29.24,South,184,1.0,4.0,75,0.00,,CLR,0.00,0.00,VWS V14.01,2013-01-08 04:27:00,
2013-01-07 22:32:00,31.5,24.8,29.24,SSE,150,0.0,1.0,76,0.00,,CLR,0.00,0.00,VWS V14.01,2013-01-08 04:32:00,
2013-01-07 22:34:00,31.5,24.5,29.24,SE,145,0.0,2.0,75,0.00,,CLR,0.00,0.00,VWS V14.01,2013-01-08 04:34:00,
2013-01-07 22:36:00,31.5,24.5,29.24,SE,126,0.0,2.0,75,0.00,,CLR,0.00,0.00,VWS V14.01,2013-01-08 04:36:00,
2013-01-07 22:37:00,31.5,24.5,29.24,SE,126,0.0,0.0,75,0.00,,CLR,0.00,0.00,VWS V14.01,2013-01-08 04:37:00,
2013-01-07 22:38:00,31.5,24.5,29.24,SW,225,2.0,3.0,75,0.00,,CLR,0.00,0.00,VWS V14.01,2013-01-08 04:38:00,
2013-01-07 22:41:00,31.5,24.8,29.24,South,187,1.0,3.0,76,0.00,,CLR,0.00,0.00,VWS V14.01,2013-01-08 04:41:00,
2013-01-07 22:43:00,31.4,24.7,29.24,South,186,0.0,2.0,76,0.00,,CLR,0.00,0.00,VWS V14.01,2013-01-08 04:43:00,
2013-01-07 22:45:00,31.4,24.7,29.24,South,173,1.0,5.0,76,0.00,,CLR,0.00,0.00,VWS V14.01,2013-01-08 04:45:00,
2013-01-07 22:50:00,31.4,24.7,29.24,SW,236,0.0,1.0,76,0.00,,CLR,0.00,0.00,VWS V14.01,2013-01-08 04:50:00,
2013-01-07 22:51:00,31.4,24.7,29.24,SW,236,0.0,1.0,76,0.00,,CLR,0.00,0.00,VWS V14.01,2013-01-08 04:51:00,
2013-01-07 22:53:00,31.3,24.6,29.24,South,182,2.0,4.0,76,0.00,,CLR,0.00,0.00,VWS V14.01,2013-01-08 04:53:00,
2013-01-07 22:56:00,31.3,24.6,29.24,East,82,0.0,2.0,76,0.00,,CLR,0.00,0.00,VWS V14.01,2013-01-08 04:56:00,
2013-01-07 22:58:00,31.2,24.5,29.25,SW,225,4.0,4.0,76,0.00,,CLR,0.00,0.00,VWS V14.01,2013-01-08 04:58:00,
2013-01-07 22:59:00,31.2,24.5,29.24,SSE,153,2.0,4.0,76,0.00,,CLR,0.00,0.00,VWS V14.01,2013-01-08 04:59:00,
2013-01-07 23:00:00,31.2,24.5,29.24,West,277,0.0,5.0,76,0.00,,CLR,0.00,0.00,VWS V14.01,2013-01-08 05:00:00,
2013-01-07 23:04:00,31.1,24.4,29.24,SE,141,0.0,0.0,76,0.00,,CLR,0.00,0.00,VWS V14.01,2013-01-08 05:04:00,
2013-01-07 23:06:00,31.1,24.4,29.24,ESE,119,0.0,4.0,76,0.00,,CLR,0.00,0.00,VWS V14.01,2013-01-08 05:06:00,
2013-01-07 23:09:00,31.0,24.3,29.25,SSE,163,0.0,2.0,76,0.00,,CLR,0.00,0.00,VWS V14.01,2013-01-08 05:09:00,
2013-01-07 23:10:00,31.0,24.3,29.24,ESE,103,1.0,3.0,76,0.00,,CLR,0.00,0.00,VWS V14.01,2013-01-08 05:10:00,
2013-01-07 23:13:00,31.0,24.6,29.24,South,176,0.0,1.0,77,0.00,,CLR,0.00,0.00,VWS V14.01,2013-01-08 05:13:00,
2013-01-07 23:15:00,30.9,24.5,29.24,SSE,153,1.0,5.0,77,0.00,,CLR,0.00,0.00,VWS V14.01,2013-01-08 05:15:00,
2013-01-07 23:16:00,30.9,24.5,29.24,SSE,153,0.0,1.0,77,0.00,,CLR,0.00,0.00,VWS V14.01,2013-01-08 05:16:00,
2013-01-07 23:17:00,30.9,24.5,29.24,SSE,154,0.0,2.0,77,0.00,,CLR,0.00,0.00,VWS V14.01,2013-01-08 05:17:00,
2013-01-07 23:20:00,30.8,24.5,29.24,SSW,194,0.0,1.0,77,0.00,,CLR,0.00,0.00,VWS V14.01,2013-01-08 05:20:00,
2013-01-07 23:21:00,30.8,24.5,29.24,SSW,198,1.0,3.0,77,0.00,,CLR,0.00,0.00,VWS V14.01,2013-01-08 05:21:00,
2013-01-07 23:23:00,30.8,24.5,29.24,South,173,0.0,0.0,77,0.00,,CLR,0.00,0.00,VWS V14.01,2013-01-08 05:23:00,
2013-01-07 23:27:00,30.7,24.4,29.24,SSW,200,1.0,2.0,77,0.00,,CLR,0.00,0.00,VWS V14.01,2013-01-08 05:27:00,
2013-01-07 23:28:00,30.8,24.5,29.24,South,171,0.0,4.0,77,0.00,,CLR,0.00,0.00,VWS V14.01,2013-01-08 05:28:00,
2013-01-07 23:29:00,30.7,24.4,29.24,NNE,22,0.0,2.0,77,0.00,,CLR,0.00,0.00,VWS V14.01,2013-01-08 05:29:00,
2013-01-07 23:33:00,30.7,24.4,29.24,SSE,165,2.0,4.0,77,0.00,,CLR,0.00,0.00,VWS V14.01,2013-01-08 05:33:00,
2013-01-07 23:34:00,30.7,24.4,29.24,SSW,203,0.0,2.0,77,0.00,,CLR,0.00,0.00,VWS V14.01,2013-01-08 05:34:00,
2013-01-07 23:38:00,30.7,24.4,29.24,South,179,0.0,3.0,77,0.00,,CLR,0.00,0.00,VWS V14.01,2013-01-08 05:38:00,
2013-01-07 23:39:00,30.7,24.4,29.24,South,179,0.0,1.0,77,0.00,,CLR,0.00,0.00,VWS V14.01,2013-01-08 05:39:00,
2013-01-07 23:42:00,30.7,24.4,29.24,ESE,119,0.0,2.0,77,0.00,,CLR,0.00,0.00,VWS V14.01,2013-01-08 05:42:00,
2013-01-07 23:45:00,30.7,24.4,29.24,South,179,0.0,6.0,77,0.00,,CLR,0.00,0.00,VWS V14.01,2013-01-08 05:45:00,
2013-01-07 23:48:00,30.7,24.4,29.24,SSE,153,0.0,2.0,77,0.00,,CLR,0.00,0.00,VWS V14.01,2013-01-08 05:48:00,
2013-01-07 23:50:00,30.7,24.4,29.24,East,91,0.0,4.0,77,0.00,,CLR,0.00,0.00,VWS V14.01,2013-01-08 05:50:00,
2013-01-07 23:52:00,30.8,24.5,29.24,SE,140,0.0,1.0,77,0.00,,CLR,0.00,0.00,VWS V14.01,2013-01-08 05:52:00,
2013-01-07 23:55:00,30.7,24.4,29.24,SW,221,0.0,3.0,77,0.00,,CLR,0.00,0.00,VWS V14.01,2013-01-08 05:55:00,
2013-01-07 23:56:00,30.7,24.4,29.24,SSE,162,0.0,4.0,77,0.00,,CLR,0.00,0.00,VWS V14.01,2013-01-08 05:56:00,
2013-01-07 23:57:00,30.7,24.4,29.24,ESE,111,0.0,1.0,77,0.00,,CLR,0.00,0.00,VWS V14.01,2013-01-08 05:57:00,